<?xml version="1.0" encoding="UTF-8" standalone="no" ?>
<gpx xmlns="http://www.topografix.com/GPX/1/1" xmlns:xsi="http://www.w3.org/2001/XMLSchema-instance" xsi:schemaLocation="http://www.topografix.com/GPX/1/1 http://www.topografix.com/GPX/1/1/gpx.xsd" version="1.1" creator="VisuGPX - https://www.visugpx.com">
  <metadata>
    <name>Tour du lac du Mont Cenis</name>
  </metadata>
  <trk>
    <name><![CDATA[11844854-XC 13 - Lac du Mont Cenis]]></name>
    <extensions>
      <line xmlns="http://www.topografix.com/GPX/gpx_style/0/2">
        <color>0000FF</color>
        <width>4</width>
      </line>
    </extensions>
    <trkseg>
      <trkpt lat="45.26003" lon="6.90053">
        <ele>2088</ele>
        <time>2022-07-01T07:56:57Z</time>
      </trkpt>
      <trkpt lat="45.26001" lon="6.9006">
        <ele>2087</ele>
        <time>2022-07-01T07:56:58Z</time>
      </trkpt>
      <trkpt lat="45.25906" lon="6.90221">
        <ele>2081</ele>
        <time>2022-07-01T07:57:33Z</time>
      </trkpt>
      <trkpt lat="45.25898" lon="6.9024">
        <ele>2080</ele>
        <time>2022-07-01T07:57:36Z</time>
      </trkpt>
      <trkpt lat="45.25881" lon="6.90311">
        <ele>2078</ele>
        <time>2022-07-01T07:57:49Z</time>
      </trkpt>
      <trkpt lat="45.2585" lon="6.90395">
        <ele>2074</ele>
        <time>2022-07-01T07:58:04Z</time>
      </trkpt>
      <trkpt lat="45.25818" lon="6.90466">
        <ele>2071</ele>
        <time>2022-07-01T07:58:18Z</time>
      </trkpt>
      <trkpt lat="45.25794" lon="6.90504">
        <ele>2070</ele>
        <time>2022-07-01T07:58:27Z</time>
      </trkpt>
      <trkpt lat="45.25779" lon="6.9052">
        <ele>2070</ele>
        <time>2022-07-01T07:58:31Z</time>
      </trkpt>
      <trkpt lat="45.25761" lon="6.90525">
        <ele>2068</ele>
        <time>2022-07-01T07:58:35Z</time>
      </trkpt>
      <trkpt lat="45.25722" lon="6.90543">
        <ele>2067</ele>
        <time>2022-07-01T07:58:45Z</time>
      </trkpt>
      <trkpt lat="45.25651" lon="6.90569">
        <ele>2062</ele>
        <time>2022-07-01T07:59:02Z</time>
      </trkpt>
      <trkpt lat="45.25643" lon="6.90562">
        <ele>2061</ele>
        <time>2022-07-01T07:59:04Z</time>
      </trkpt>
      <trkpt lat="45.25639" lon="6.90533">
        <ele>2059</ele>
        <time>2022-07-01T07:59:09Z</time>
      </trkpt>
      <trkpt lat="45.25636" lon="6.90526">
        <ele>2058</ele>
        <time>2022-07-01T07:59:10Z</time>
      </trkpt>
      <trkpt lat="45.25609" lon="6.90528">
        <ele>2055</ele>
        <time>2022-07-01T07:59:17Z</time>
      </trkpt>
      <trkpt lat="45.25582" lon="6.90536">
        <ele>2053</ele>
        <time>2022-07-01T07:59:23Z</time>
      </trkpt>
      <trkpt lat="45.25561" lon="6.90538">
        <ele>2052</ele>
        <time>2022-07-01T07:59:28Z</time>
      </trkpt>
      <trkpt lat="45.25536" lon="6.90546">
        <ele>2051</ele>
        <time>2022-07-01T07:59:34Z</time>
      </trkpt>
      <trkpt lat="45.25512" lon="6.90547">
        <ele>2049</ele>
        <time>2022-07-01T07:59:40Z</time>
      </trkpt>
      <trkpt lat="45.25495" lon="6.90543">
        <ele>2047</ele>
        <time>2022-07-01T07:59:44Z</time>
      </trkpt>
      <trkpt lat="45.2548" lon="6.90536">
        <ele>2046</ele>
        <time>2022-07-01T07:59:47Z</time>
      </trkpt>
      <trkpt lat="45.25421" lon="6.90491">
        <ele>2037</ele>
        <time>2022-07-01T08:00:03Z</time>
      </trkpt>
      <trkpt lat="45.2541" lon="6.90486">
        <ele>2035</ele>
        <time>2022-07-01T08:00:06Z</time>
      </trkpt>
      <trkpt lat="45.25391" lon="6.90486">
        <ele>2031</ele>
        <time>2022-07-01T08:00:10Z</time>
      </trkpt>
      <trkpt lat="45.25383" lon="6.90496">
        <ele>2030</ele>
        <time>2022-07-01T08:00:13Z</time>
      </trkpt>
      <trkpt lat="45.2537" lon="6.90522">
        <ele>2030</ele>
        <time>2022-07-01T08:00:18Z</time>
      </trkpt>
      <trkpt lat="45.25349" lon="6.90607">
        <ele>2033</ele>
        <time>2022-07-01T08:00:33Z</time>
      </trkpt>
      <trkpt lat="45.25332" lon="6.90647">
        <ele>2034</ele>
        <time>2022-07-01T08:00:40Z</time>
      </trkpt>
      <trkpt lat="45.25321" lon="6.90663">
        <ele>2033</ele>
        <time>2022-07-01T08:00:44Z</time>
      </trkpt>
      <trkpt lat="45.25279" lon="6.90702">
        <ele>2024</ele>
        <time>2022-07-01T08:00:56Z</time>
      </trkpt>
      <trkpt lat="45.25244" lon="6.90744">
        <ele>2017</ele>
        <time>2022-07-01T08:01:06Z</time>
      </trkpt>
      <trkpt lat="45.25234" lon="6.90765">
        <ele>2016</ele>
        <time>2022-07-01T08:01:11Z</time>
      </trkpt>
      <trkpt lat="45.25209" lon="6.90835">
        <ele>2014</ele>
        <time>2022-07-01T08:01:23Z</time>
      </trkpt>
      <trkpt lat="45.25197" lon="6.90882">
        <ele>2012</ele>
        <time>2022-07-01T08:01:32Z</time>
      </trkpt>
      <trkpt lat="45.25187" lon="6.9091">
        <ele>2010</ele>
        <time>2022-07-01T08:01:37Z</time>
      </trkpt>
      <trkpt lat="45.25181" lon="6.90924">
        <ele>2008</ele>
        <time>2022-07-01T08:01:40Z</time>
      </trkpt>
      <trkpt lat="45.25163" lon="6.90942">
        <ele>2002</ele>
        <time>2022-07-01T08:01:45Z</time>
      </trkpt>
      <trkpt lat="45.25169" lon="6.9091">
        <ele>2003</ele>
        <time>2022-07-01T08:01:50Z</time>
      </trkpt>
      <trkpt lat="45.25178" lon="6.90895">
        <ele>2005</ele>
        <time>2022-07-01T08:01:53Z</time>
      </trkpt>
      <trkpt lat="45.25186" lon="6.90854">
        <ele>2006</ele>
        <time>2022-07-01T08:02:00Z</time>
      </trkpt>
      <trkpt lat="45.25189" lon="6.90825">
        <ele>2005</ele>
        <time>2022-07-01T08:02:05Z</time>
      </trkpt>
      <trkpt lat="45.25199" lon="6.90796">
        <ele>2007</ele>
        <time>2022-07-01T08:02:11Z</time>
      </trkpt>
      <trkpt lat="45.25203" lon="6.90773">
        <ele>2006</ele>
        <time>2022-07-01T08:02:14Z</time>
      </trkpt>
      <trkpt lat="45.25206" lon="6.90729">
        <ele>2004</ele>
        <time>2022-07-01T08:02:22Z</time>
      </trkpt>
      <trkpt lat="45.25202" lon="6.90712">
        <ele>2002</ele>
        <time>2022-07-01T08:02:25Z</time>
      </trkpt>
      <trkpt lat="45.25203" lon="6.90679">
        <ele>2000</ele>
        <time>2022-07-01T08:02:30Z</time>
      </trkpt>
      <trkpt lat="45.25198" lon="6.9064">
        <ele>2000</ele>
        <time>2022-07-01T08:02:37Z</time>
      </trkpt>
      <trkpt lat="45.25193" lon="6.9063">
        <ele>2000</ele>
        <time>2022-07-01T08:02:39Z</time>
      </trkpt>
      <trkpt lat="45.25173" lon="6.90623">
        <ele>1999</ele>
        <time>2022-07-01T08:02:43Z</time>
      </trkpt>
      <trkpt lat="45.25165" lon="6.90623">
        <ele>1998</ele>
        <time>2022-07-01T08:02:45Z</time>
      </trkpt>
      <trkpt lat="45.25142" lon="6.90636">
        <ele>1998</ele>
        <time>2022-07-01T08:02:51Z</time>
      </trkpt>
      <trkpt lat="45.25134" lon="6.90637">
        <ele>1999</ele>
        <time>2022-07-01T08:02:53Z</time>
      </trkpt>
      <trkpt lat="45.25119" lon="6.90632">
        <ele>2001</ele>
        <time>2022-07-01T08:02:57Z</time>
      </trkpt>
      <trkpt lat="45.25111" lon="6.90632">
        <ele>2002</ele>
        <time>2022-07-01T08:02:58Z</time>
      </trkpt>
      <trkpt lat="45.25103" lon="6.90637">
        <ele>2002</ele>
        <time>2022-07-01T08:03:00Z</time>
      </trkpt>
      <trkpt lat="45.25055" lon="6.90698">
        <ele>1995</ele>
        <time>2022-07-01T08:03:15Z</time>
      </trkpt>
      <trkpt lat="45.25028" lon="6.90704">
        <ele>1998</ele>
        <time>2022-07-01T08:03:22Z</time>
      </trkpt>
      <trkpt lat="45.24971" lon="6.90736">
        <ele>1995</ele>
        <time>2022-07-01T08:03:36Z</time>
      </trkpt>
      <trkpt lat="45.24929" lon="6.90756">
        <ele>1991</ele>
        <time>2022-07-01T08:03:47Z</time>
      </trkpt>
      <trkpt lat="45.24909" lon="6.90769">
        <ele>1988</ele>
        <time>2022-07-01T08:03:52Z</time>
      </trkpt>
      <trkpt lat="45.24897" lon="6.90773">
        <ele>1987</ele>
        <time>2022-07-01T08:03:55Z</time>
      </trkpt>
      <trkpt lat="45.24866" lon="6.90766">
        <ele>1989</ele>
        <time>2022-07-01T08:04:02Z</time>
      </trkpt>
      <trkpt lat="45.24835" lon="6.90755">
        <ele>1992</ele>
        <time>2022-07-01T08:04:09Z</time>
      </trkpt>
      <trkpt lat="45.24795" lon="6.90747">
        <ele>1987</ele>
        <time>2022-07-01T08:04:19Z</time>
      </trkpt>
      <trkpt lat="45.24786" lon="6.90738">
        <ele>1988</ele>
        <time>2022-07-01T08:04:21Z</time>
      </trkpt>
      <trkpt lat="45.24773" lon="6.90708">
        <ele>1993</ele>
        <time>2022-07-01T08:04:27Z</time>
      </trkpt>
      <trkpt lat="45.24765" lon="6.90696">
        <ele>1995</ele>
        <time>2022-07-01T08:04:30Z</time>
      </trkpt>
      <trkpt lat="45.24746" lon="6.90683">
        <ele>1994</ele>
        <time>2022-07-01T08:04:35Z</time>
      </trkpt>
      <trkpt lat="45.24714" lon="6.90673">
        <ele>1992</ele>
        <time>2022-07-01T08:04:42Z</time>
      </trkpt>
      <trkpt lat="45.24694" lon="6.90663">
        <ele>1992</ele>
        <time>2022-07-01T08:04:47Z</time>
      </trkpt>
      <trkpt lat="45.24681" lon="6.9065">
        <ele>1995</ele>
        <time>2022-07-01T08:04:51Z</time>
      </trkpt>
      <trkpt lat="45.24668" lon="6.90645">
        <ele>1995</ele>
        <time>2022-07-01T08:04:54Z</time>
      </trkpt>
      <trkpt lat="45.24657" lon="6.90637">
        <ele>1996</ele>
        <time>2022-07-01T08:04:57Z</time>
      </trkpt>
      <trkpt lat="45.246" lon="6.90622">
        <ele>1993</ele>
        <time>2022-07-01T08:05:11Z</time>
      </trkpt>
      <trkpt lat="45.24572" lon="6.90618">
        <ele>1990</ele>
        <time>2022-07-01T08:05:17Z</time>
      </trkpt>
      <trkpt lat="45.24545" lon="6.90608">
        <ele>1990</ele>
        <time>2022-07-01T08:05:24Z</time>
      </trkpt>
      <trkpt lat="45.24495" lon="6.90596">
        <ele>1987</ele>
        <time>2022-07-01T08:05:36Z</time>
      </trkpt>
      <trkpt lat="45.24426" lon="6.90563">
        <ele>1997</ele>
        <time>2022-07-01T08:05:53Z</time>
      </trkpt>
      <trkpt lat="45.2439" lon="6.90562">
        <ele>1997</ele>
        <time>2022-07-01T08:06:01Z</time>
      </trkpt>
      <trkpt lat="45.24361" lon="6.90569">
        <ele>1993</ele>
        <time>2022-07-01T08:06:08Z</time>
      </trkpt>
      <trkpt lat="45.24323" lon="6.9057">
        <ele>1992</ele>
        <time>2022-07-01T08:06:17Z</time>
      </trkpt>
      <trkpt lat="45.24293" lon="6.90582">
        <ele>1989</ele>
        <time>2022-07-01T08:06:24Z</time>
      </trkpt>
      <trkpt lat="45.24281" lon="6.90583">
        <ele>1989</ele>
        <time>2022-07-01T08:06:27Z</time>
      </trkpt>
      <trkpt lat="45.24243" lon="6.90576">
        <ele>1993</ele>
        <time>2022-07-01T08:06:36Z</time>
      </trkpt>
      <trkpt lat="45.242" lon="6.90562">
        <ele>1995</ele>
        <time>2022-07-01T08:06:46Z</time>
      </trkpt>
      <trkpt lat="45.24183" lon="6.90559">
        <ele>1995</ele>
        <time>2022-07-01T08:06:50Z</time>
      </trkpt>
      <trkpt lat="45.24137" lon="6.90559">
        <ele>1994</ele>
        <time>2022-07-01T08:07:01Z</time>
      </trkpt>
      <trkpt lat="45.241" lon="6.90554">
        <ele>1997</ele>
        <time>2022-07-01T08:07:09Z</time>
      </trkpt>
      <trkpt lat="45.24019" lon="6.9058">
        <ele>2000</ele>
        <time>2022-07-01T08:07:29Z</time>
      </trkpt>
      <trkpt lat="45.23996" lon="6.90593">
        <ele>2001</ele>
        <time>2022-07-01T08:07:35Z</time>
      </trkpt>
      <trkpt lat="45.23961" lon="6.90626">
        <ele>1997</ele>
        <time>2022-07-01T08:07:44Z</time>
      </trkpt>
      <trkpt lat="45.23943" lon="6.90635">
        <ele>1997</ele>
        <time>2022-07-01T08:07:49Z</time>
      </trkpt>
      <trkpt lat="45.23924" lon="6.90641">
        <ele>1999</ele>
        <time>2022-07-01T08:07:53Z</time>
      </trkpt>
      <trkpt lat="45.23895" lon="6.90643">
        <ele>1999</ele>
        <time>2022-07-01T08:08:00Z</time>
      </trkpt>
      <trkpt lat="45.23869" lon="6.90635">
        <ele>1999</ele>
        <time>2022-07-01T08:08:06Z</time>
      </trkpt>
      <trkpt lat="45.23847" lon="6.90636">
        <ele>1998</ele>
        <time>2022-07-01T08:08:12Z</time>
      </trkpt>
      <trkpt lat="45.23839" lon="6.90634">
        <ele>1998</ele>
        <time>2022-07-01T08:08:13Z</time>
      </trkpt>
      <trkpt lat="45.23803" lon="6.90588">
        <ele>1996</ele>
        <time>2022-07-01T08:08:25Z</time>
      </trkpt>
      <trkpt lat="45.23788" lon="6.90559">
        <ele>1995</ele>
        <time>2022-07-01T08:08:31Z</time>
      </trkpt>
      <trkpt lat="45.23765" lon="6.90474">
        <ele>1997</ele>
        <time>2022-07-01T08:08:46Z</time>
      </trkpt>
      <trkpt lat="45.23746" lon="6.90426">
        <ele>1998</ele>
        <time>2022-07-01T08:08:55Z</time>
      </trkpt>
      <trkpt lat="45.23726" lon="6.90397">
        <ele>2000</ele>
        <time>2022-07-01T08:09:01Z</time>
      </trkpt>
      <trkpt lat="45.23685" lon="6.90347">
        <ele>2000</ele>
        <time>2022-07-01T08:09:14Z</time>
      </trkpt>
      <trkpt lat="45.23666" lon="6.90308">
        <ele>2002</ele>
        <time>2022-07-01T08:09:22Z</time>
      </trkpt>
      <trkpt lat="45.23635" lon="6.90258">
        <ele>2008</ele>
        <time>2022-07-01T08:09:33Z</time>
      </trkpt>
      <trkpt lat="45.23617" lon="6.90244">
        <ele>2008</ele>
        <time>2022-07-01T08:09:38Z</time>
      </trkpt>
      <trkpt lat="45.23598" lon="6.90235">
        <ele>2007</ele>
        <time>2022-07-01T08:09:42Z</time>
      </trkpt>
      <trkpt lat="45.23562" lon="6.90172">
        <ele>2012</ele>
        <time>2022-07-01T08:09:56Z</time>
      </trkpt>
      <trkpt lat="45.23516" lon="6.90144">
        <ele>2013</ele>
        <time>2022-07-01T08:10:07Z</time>
      </trkpt>
      <trkpt lat="45.23468" lon="6.90132">
        <ele>2013</ele>
        <time>2022-07-01T08:10:19Z</time>
      </trkpt>
      <trkpt lat="45.23443" lon="6.90123">
        <ele>2014</ele>
        <time>2022-07-01T08:10:25Z</time>
      </trkpt>
      <trkpt lat="45.23412" lon="6.90103">
        <ele>2016</ele>
        <time>2022-07-01T08:10:33Z</time>
      </trkpt>
      <trkpt lat="45.23388" lon="6.90079">
        <ele>2015</ele>
        <time>2022-07-01T08:10:40Z</time>
      </trkpt>
      <trkpt lat="45.23371" lon="6.90049">
        <ele>2015</ele>
        <time>2022-07-01T08:10:46Z</time>
      </trkpt>
      <trkpt lat="45.23344" lon="6.90014">
        <ele>2014</ele>
        <time>2022-07-01T08:10:54Z</time>
      </trkpt>
      <trkpt lat="45.23298" lon="6.89967">
        <ele>2015</ele>
        <time>2022-07-01T08:11:08Z</time>
      </trkpt>
      <trkpt lat="45.23258" lon="6.89942">
        <ele>2014</ele>
        <time>2022-07-01T08:11:18Z</time>
      </trkpt>
      <trkpt lat="45.23251" lon="6.89941">
        <ele>2014</ele>
        <time>2022-07-01T08:11:19Z</time>
      </trkpt>
      <trkpt lat="45.23229" lon="6.89929">
        <ele>2014</ele>
        <time>2022-07-01T08:11:25Z</time>
      </trkpt>
      <trkpt lat="45.23212" lon="6.89926">
        <ele>2015</ele>
        <time>2022-07-01T08:11:29Z</time>
      </trkpt>
      <trkpt lat="45.23198" lon="6.89929">
        <ele>2015</ele>
        <time>2022-07-01T08:11:32Z</time>
      </trkpt>
      <trkpt lat="45.23187" lon="6.89942">
        <ele>2015</ele>
        <time>2022-07-01T08:11:36Z</time>
      </trkpt>
      <trkpt lat="45.23183" lon="6.89959">
        <ele>2015</ele>
        <time>2022-07-01T08:11:39Z</time>
      </trkpt>
      <trkpt lat="45.23185" lon="6.89973">
        <ele>2016</ele>
        <time>2022-07-01T08:11:41Z</time>
      </trkpt>
      <trkpt lat="45.23203" lon="6.90021">
        <ele>2016</ele>
        <time>2022-07-01T08:11:50Z</time>
      </trkpt>
      <trkpt lat="45.23212" lon="6.90036">
        <ele>2016</ele>
        <time>2022-07-01T08:11:53Z</time>
      </trkpt>
      <trkpt lat="45.23223" lon="6.90081">
        <ele>2017</ele>
        <time>2022-07-01T08:12:01Z</time>
      </trkpt>
      <trkpt lat="45.23273" lon="6.90226">
        <ele>2019</ele>
        <time>2022-07-01T08:12:27Z</time>
      </trkpt>
      <trkpt lat="45.23279" lon="6.90268">
        <ele>2021</ele>
        <time>2022-07-01T08:12:35Z</time>
      </trkpt>
      <trkpt lat="45.23283" lon="6.90281">
        <ele>2021</ele>
        <time>2022-07-01T08:12:37Z</time>
      </trkpt>
      <trkpt lat="45.23308" lon="6.90325">
        <ele>2019</ele>
        <time>2022-07-01T08:12:46Z</time>
      </trkpt>
      <trkpt lat="45.23345" lon="6.90426">
        <ele>2018</ele>
        <time>2022-07-01T08:13:05Z</time>
      </trkpt>
      <trkpt lat="45.23348" lon="6.90439">
        <ele>2018</ele>
        <time>2022-07-01T08:13:07Z</time>
      </trkpt>
      <trkpt lat="45.23345" lon="6.90514">
        <ele>2025</ele>
        <time>2022-07-01T08:13:19Z</time>
      </trkpt>
      <trkpt lat="45.23348" lon="6.90553">
        <ele>2027</ele>
        <time>2022-07-01T08:13:26Z</time>
      </trkpt>
      <trkpt lat="45.23354" lon="6.90579">
        <ele>2027</ele>
        <time>2022-07-01T08:13:30Z</time>
      </trkpt>
      <trkpt lat="45.23389" lon="6.90665">
        <ele>2026</ele>
        <time>2022-07-01T08:13:47Z</time>
      </trkpt>
      <trkpt lat="45.2339" lon="6.90682">
        <ele>2026</ele>
        <time>2022-07-01T08:13:50Z</time>
      </trkpt>
      <trkpt lat="45.23388" lon="6.90696">
        <ele>2026</ele>
        <time>2022-07-01T08:13:52Z</time>
      </trkpt>
      <trkpt lat="45.23374" lon="6.90746">
        <ele>2029</ele>
        <time>2022-07-01T08:14:01Z</time>
      </trkpt>
      <trkpt lat="45.23375" lon="6.90771">
        <ele>2027</ele>
        <time>2022-07-01T08:14:05Z</time>
      </trkpt>
      <trkpt lat="45.2337" lon="6.90795">
        <ele>2027</ele>
        <time>2022-07-01T08:14:09Z</time>
      </trkpt>
      <trkpt lat="45.23368" lon="6.9082">
        <ele>2026</ele>
        <time>2022-07-01T08:14:13Z</time>
      </trkpt>
      <trkpt lat="45.23353" lon="6.90879">
        <ele>2026</ele>
        <time>2022-07-01T08:14:23Z</time>
      </trkpt>
      <trkpt lat="45.23334" lon="6.90923">
        <ele>2027</ele>
        <time>2022-07-01T08:14:32Z</time>
      </trkpt>
      <trkpt lat="45.23315" lon="6.90981">
        <ele>2026</ele>
        <time>2022-07-01T08:14:42Z</time>
      </trkpt>
      <trkpt lat="45.23308" lon="6.90996">
        <ele>2027</ele>
        <time>2022-07-01T08:14:45Z</time>
      </trkpt>
      <trkpt lat="45.23294" lon="6.91017">
        <ele>2028</ele>
        <time>2022-07-01T08:14:50Z</time>
      </trkpt>
      <trkpt lat="45.23273" lon="6.91041">
        <ele>2031</ele>
        <time>2022-07-01T08:14:56Z</time>
      </trkpt>
      <trkpt lat="45.23242" lon="6.91092">
        <ele>2032</ele>
        <time>2022-07-01T08:15:08Z</time>
      </trkpt>
      <trkpt lat="45.23234" lon="6.91107">
        <ele>2033</ele>
        <time>2022-07-01T08:15:11Z</time>
      </trkpt>
      <trkpt lat="45.23222" lon="6.91141">
        <ele>2034</ele>
        <time>2022-07-01T08:15:17Z</time>
      </trkpt>
      <trkpt lat="45.23204" lon="6.91231">
        <ele>2031</ele>
        <time>2022-07-01T08:15:32Z</time>
      </trkpt>
      <trkpt lat="45.23189" lon="6.91256">
        <ele>2034</ele>
        <time>2022-07-01T08:15:38Z</time>
      </trkpt>
      <trkpt lat="45.23179" lon="6.9131">
        <ele>2033</ele>
        <time>2022-07-01T08:15:47Z</time>
      </trkpt>
      <trkpt lat="45.23156" lon="6.91371">
        <ele>2036</ele>
        <time>2022-07-01T08:15:58Z</time>
      </trkpt>
      <trkpt lat="45.23152" lon="6.91409">
        <ele>2036</ele>
        <time>2022-07-01T08:16:05Z</time>
      </trkpt>
      <trkpt lat="45.23159" lon="6.91539">
        <ele>2033</ele>
        <time>2022-07-01T08:16:26Z</time>
      </trkpt>
      <trkpt lat="45.23156" lon="6.9155">
        <ele>2033</ele>
        <time>2022-07-01T08:16:28Z</time>
      </trkpt>
      <trkpt lat="45.2314" lon="6.9158">
        <ele>2035</ele>
        <time>2022-07-01T08:16:34Z</time>
      </trkpt>
      <trkpt lat="45.23114" lon="6.91672">
        <ele>2036</ele>
        <time>2022-07-01T08:16:50Z</time>
      </trkpt>
      <trkpt lat="45.23105" lon="6.91686">
        <ele>2038</ele>
        <time>2022-07-01T08:16:54Z</time>
      </trkpt>
      <trkpt lat="45.23053" lon="6.91721">
        <ele>2044</ele>
        <time>2022-07-01T08:17:07Z</time>
      </trkpt>
      <trkpt lat="45.22987" lon="6.9176">
        <ele>2045</ele>
        <time>2022-07-01T08:17:24Z</time>
      </trkpt>
      <trkpt lat="45.2293" lon="6.91805">
        <ele>2049</ele>
        <time>2022-07-01T08:17:39Z</time>
      </trkpt>
      <trkpt lat="45.22922" lon="6.91816">
        <ele>2047</ele>
        <time>2022-07-01T08:17:42Z</time>
      </trkpt>
      <trkpt lat="45.22882" lon="6.91845">
        <ele>2047</ele>
        <time>2022-07-01T08:17:52Z</time>
      </trkpt>
      <trkpt lat="45.22865" lon="6.91873">
        <ele>2045</ele>
        <time>2022-07-01T08:17:58Z</time>
      </trkpt>
      <trkpt lat="45.2285" lon="6.9189">
        <ele>2046</ele>
        <time>2022-07-01T08:18:03Z</time>
      </trkpt>
      <trkpt lat="45.22818" lon="6.91899">
        <ele>2051</ele>
        <time>2022-07-01T08:18:10Z</time>
      </trkpt>
      <trkpt lat="45.2281" lon="6.91904">
        <ele>2051</ele>
        <time>2022-07-01T08:18:12Z</time>
      </trkpt>
      <trkpt lat="45.22803" lon="6.91911">
        <ele>2052</ele>
        <time>2022-07-01T08:18:14Z</time>
      </trkpt>
      <trkpt lat="45.22799" lon="6.91955">
        <ele>2044</ele>
        <time>2022-07-01T08:18:22Z</time>
      </trkpt>
      <trkpt lat="45.22793" lon="6.91974">
        <ele>2041</ele>
        <time>2022-07-01T08:18:25Z</time>
      </trkpt>
      <trkpt lat="45.22756" lon="6.91977">
        <ele>2049</ele>
        <time>2022-07-01T08:18:34Z</time>
      </trkpt>
      <trkpt lat="45.22725" lon="6.91983">
        <ele>2054</ele>
        <time>2022-07-01T08:18:41Z</time>
      </trkpt>
      <trkpt lat="45.22691" lon="6.91985">
        <ele>2060</ele>
        <time>2022-07-01T08:18:49Z</time>
      </trkpt>
      <trkpt lat="45.2268" lon="6.91987">
        <ele>2062</ele>
        <time>2022-07-01T08:18:51Z</time>
      </trkpt>
      <trkpt lat="45.22671" lon="6.91994">
        <ele>2062</ele>
        <time>2022-07-01T08:18:54Z</time>
      </trkpt>
      <trkpt lat="45.2267" lon="6.92009">
        <ele>2061</ele>
        <time>2022-07-01T08:18:56Z</time>
      </trkpt>
      <trkpt lat="45.22686" lon="6.9204">
        <ele>2055</ele>
        <time>2022-07-01T08:19:03Z</time>
      </trkpt>
      <trkpt lat="45.22685" lon="6.92065">
        <ele>2053</ele>
        <time>2022-07-01T08:19:07Z</time>
      </trkpt>
      <trkpt lat="45.22672" lon="6.92093">
        <ele>2055</ele>
        <time>2022-07-01T08:19:12Z</time>
      </trkpt>
      <trkpt lat="45.22643" lon="6.92136">
        <ele>2061</ele>
        <time>2022-07-01T08:19:22Z</time>
      </trkpt>
      <trkpt lat="45.22638" lon="6.9215">
        <ele>2062</ele>
        <time>2022-07-01T08:19:25Z</time>
      </trkpt>
      <trkpt lat="45.22635" lon="6.9219">
        <ele>2063</ele>
        <time>2022-07-01T08:19:31Z</time>
      </trkpt>
      <trkpt lat="45.22639" lon="6.92205">
        <ele>2062</ele>
        <time>2022-07-01T08:19:34Z</time>
      </trkpt>
      <trkpt lat="45.22654" lon="6.92234">
        <ele>2058</ele>
        <time>2022-07-01T08:19:40Z</time>
      </trkpt>
      <trkpt lat="45.22665" lon="6.92262">
        <ele>2054</ele>
        <time>2022-07-01T08:19:45Z</time>
      </trkpt>
      <trkpt lat="45.2266" lon="6.92292">
        <ele>2053</ele>
        <time>2022-07-01T08:19:50Z</time>
      </trkpt>
      <trkpt lat="45.22638" lon="6.92333">
        <ele>2055</ele>
        <time>2022-07-01T08:19:59Z</time>
      </trkpt>
      <trkpt lat="45.22627" lon="6.92368">
        <ele>2054</ele>
        <time>2022-07-01T08:20:05Z</time>
      </trkpt>
      <trkpt lat="45.22623" lon="6.92435">
        <ele>2048</ele>
        <time>2022-07-01T08:20:16Z</time>
      </trkpt>
      <trkpt lat="45.22616" lon="6.92489">
        <ele>2043</ele>
        <time>2022-07-01T08:20:25Z</time>
      </trkpt>
      <trkpt lat="45.226" lon="6.92508">
        <ele>2043</ele>
        <time>2022-07-01T08:20:30Z</time>
      </trkpt>
      <trkpt lat="45.22587" lon="6.92515">
        <ele>2043</ele>
        <time>2022-07-01T08:20:33Z</time>
      </trkpt>
      <trkpt lat="45.22573" lon="6.92516">
        <ele>2044</ele>
        <time>2022-07-01T08:20:36Z</time>
      </trkpt>
      <trkpt lat="45.22534" lon="6.92509">
        <ele>2046</ele>
        <time>2022-07-01T08:20:46Z</time>
      </trkpt>
      <trkpt lat="45.22501" lon="6.9251">
        <ele>2046</ele>
        <time>2022-07-01T08:20:53Z</time>
      </trkpt>
      <trkpt lat="45.22472" lon="6.92506">
        <ele>2047</ele>
        <time>2022-07-01T08:21:00Z</time>
      </trkpt>
      <trkpt lat="45.22451" lon="6.92509">
        <ele>2047</ele>
        <time>2022-07-01T08:21:05Z</time>
      </trkpt>
      <trkpt lat="45.22436" lon="6.92519">
        <ele>2046</ele>
        <time>2022-07-01T08:21:09Z</time>
      </trkpt>
      <trkpt lat="45.2243" lon="6.92527">
        <ele>2044</ele>
        <time>2022-07-01T08:21:11Z</time>
      </trkpt>
      <trkpt lat="45.22403" lon="6.92548">
        <ele>2046</ele>
        <time>2022-07-01T08:21:18Z</time>
      </trkpt>
      <trkpt lat="45.22389" lon="6.92568">
        <ele>2047</ele>
        <time>2022-07-01T08:21:23Z</time>
      </trkpt>
      <trkpt lat="45.22386" lon="6.92593">
        <ele>2044</ele>
        <time>2022-07-01T08:21:27Z</time>
      </trkpt>
      <trkpt lat="45.22391" lon="6.92616">
        <ele>2038</ele>
        <time>2022-07-01T08:21:31Z</time>
      </trkpt>
      <trkpt lat="45.2239" lon="6.92628">
        <ele>2037</ele>
        <time>2022-07-01T08:21:33Z</time>
      </trkpt>
      <trkpt lat="45.22381" lon="6.92665">
        <ele>2033</ele>
        <time>2022-07-01T08:21:39Z</time>
      </trkpt>
      <trkpt lat="45.22375" lon="6.9268">
        <ele>2033</ele>
        <time>2022-07-01T08:21:42Z</time>
      </trkpt>
      <trkpt lat="45.22367" lon="6.92689">
        <ele>2033</ele>
        <time>2022-07-01T08:21:44Z</time>
      </trkpt>
      <trkpt lat="45.22359" lon="6.92708">
        <ele>2033</ele>
        <time>2022-07-01T08:21:48Z</time>
      </trkpt>
      <trkpt lat="45.22355" lon="6.92732">
        <ele>2030</ele>
        <time>2022-07-01T08:21:52Z</time>
      </trkpt>
      <trkpt lat="45.2234" lon="6.92774">
        <ele>2028</ele>
        <time>2022-07-01T08:22:00Z</time>
      </trkpt>
      <trkpt lat="45.22342" lon="6.92817">
        <ele>2024</ele>
        <time>2022-07-01T08:22:07Z</time>
      </trkpt>
      <trkpt lat="45.22323" lon="6.92903">
        <ele>2020</ele>
        <time>2022-07-01T08:22:22Z</time>
      </trkpt>
      <trkpt lat="45.22301" lon="6.92986">
        <ele>2019</ele>
        <time>2022-07-01T08:22:36Z</time>
      </trkpt>
      <trkpt lat="45.22288" lon="6.93005">
        <ele>2021</ele>
        <time>2022-07-01T08:22:41Z</time>
      </trkpt>
      <trkpt lat="45.22279" lon="6.93014">
        <ele>2022</ele>
        <time>2022-07-01T08:22:43Z</time>
      </trkpt>
      <trkpt lat="45.22271" lon="6.93032">
        <ele>2023</ele>
        <time>2022-07-01T08:22:47Z</time>
      </trkpt>
      <trkpt lat="45.2227" lon="6.93044">
        <ele>2022</ele>
        <time>2022-07-01T08:22:49Z</time>
      </trkpt>
      <trkpt lat="45.22273" lon="6.93072">
        <ele>2018</ele>
        <time>2022-07-01T08:22:53Z</time>
      </trkpt>
      <trkpt lat="45.22262" lon="6.93118">
        <ele>2019</ele>
        <time>2022-07-01T08:23:01Z</time>
      </trkpt>
      <trkpt lat="45.22262" lon="6.93129">
        <ele>2018</ele>
        <time>2022-07-01T08:23:03Z</time>
      </trkpt>
      <trkpt lat="45.22267" lon="6.93153">
        <ele>2016</ele>
        <time>2022-07-01T08:23:07Z</time>
      </trkpt>
      <trkpt lat="45.22266" lon="6.93164">
        <ele>2015</ele>
        <time>2022-07-01T08:23:09Z</time>
      </trkpt>
      <trkpt lat="45.22253" lon="6.93196">
        <ele>2016</ele>
        <time>2022-07-01T08:23:15Z</time>
      </trkpt>
      <trkpt lat="45.22246" lon="6.93207">
        <ele>2017</ele>
        <time>2022-07-01T08:23:18Z</time>
      </trkpt>
      <trkpt lat="45.22238" lon="6.93231">
        <ele>2018</ele>
        <time>2022-07-01T08:23:22Z</time>
      </trkpt>
      <trkpt lat="45.22244" lon="6.93281">
        <ele>2010</ele>
        <time>2022-07-01T08:23:30Z</time>
      </trkpt>
      <trkpt lat="45.22243" lon="6.93292">
        <ele>2010</ele>
        <time>2022-07-01T08:23:32Z</time>
      </trkpt>
      <trkpt lat="45.2223" lon="6.93318">
        <ele>2012</ele>
        <time>2022-07-01T08:23:38Z</time>
      </trkpt>
      <trkpt lat="45.22226" lon="6.93334">
        <ele>2012</ele>
        <time>2022-07-01T08:23:40Z</time>
      </trkpt>
      <trkpt lat="45.22227" lon="6.9335">
        <ele>2013</ele>
        <time>2022-07-01T08:23:43Z</time>
      </trkpt>
      <trkpt lat="45.22234" lon="6.93357">
        <ele>2010</ele>
        <time>2022-07-01T08:23:45Z</time>
      </trkpt>
      <trkpt lat="45.22245" lon="6.93358">
        <ele>2007</ele>
        <time>2022-07-01T08:23:48Z</time>
      </trkpt>
      <trkpt lat="45.22262" lon="6.9337">
        <ele>2004</ele>
        <time>2022-07-01T08:23:52Z</time>
      </trkpt>
      <trkpt lat="45.22283" lon="6.93423">
        <ele>2005</ele>
        <time>2022-07-01T08:24:02Z</time>
      </trkpt>
      <trkpt lat="45.2232" lon="6.93496">
        <ele>2007</ele>
        <time>2022-07-01T08:24:17Z</time>
      </trkpt>
      <trkpt lat="45.22335" lon="6.9355">
        <ele>2009</ele>
        <time>2022-07-01T08:24:26Z</time>
      </trkpt>
      <trkpt lat="45.22337" lon="6.93569">
        <ele>2011</ele>
        <time>2022-07-01T08:24:29Z</time>
      </trkpt>
      <trkpt lat="45.22333" lon="6.93595">
        <ele>2013</ele>
        <time>2022-07-01T08:24:34Z</time>
      </trkpt>
      <trkpt lat="45.22319" lon="6.93644">
        <ele>2019</ele>
        <time>2022-07-01T08:24:43Z</time>
      </trkpt>
      <trkpt lat="45.22317" lon="6.93689">
        <ele>2023</ele>
        <time>2022-07-01T08:24:50Z</time>
      </trkpt>
      <trkpt lat="45.22303" lon="6.93717">
        <ele>2027</ele>
        <time>2022-07-01T08:24:56Z</time>
      </trkpt>
      <trkpt lat="45.22291" lon="6.93758">
        <ele>2031</ele>
        <time>2022-07-01T08:25:03Z</time>
      </trkpt>
      <trkpt lat="45.22278" lon="6.93855">
        <ele>2039</ele>
        <time>2022-07-01T08:25:19Z</time>
      </trkpt>
      <trkpt lat="45.22262" lon="6.93925">
        <ele>2040</ele>
        <time>2022-07-01T08:25:31Z</time>
      </trkpt>
      <trkpt lat="45.22262" lon="6.93967">
        <ele>2042</ele>
        <time>2022-07-01T08:25:38Z</time>
      </trkpt>
      <trkpt lat="45.22257" lon="6.9402">
        <ele>2041</ele>
        <time>2022-07-01T08:25:47Z</time>
      </trkpt>
      <trkpt lat="45.22258" lon="6.94046">
        <ele>2042</ele>
        <time>2022-07-01T08:25:51Z</time>
      </trkpt>
      <trkpt lat="45.22244" lon="6.94135">
        <ele>2033</ele>
        <time>2022-07-01T08:26:06Z</time>
      </trkpt>
      <trkpt lat="45.22242" lon="6.94165">
        <ele>2030</ele>
        <time>2022-07-01T08:26:11Z</time>
      </trkpt>
      <trkpt lat="45.22255" lon="6.94222">
        <ele>2026</ele>
        <time>2022-07-01T08:26:21Z</time>
      </trkpt>
      <trkpt lat="45.22249" lon="6.94289">
        <ele>2016</ele>
        <time>2022-07-01T08:26:32Z</time>
      </trkpt>
      <trkpt lat="45.22249" lon="6.94385">
        <ele>1997</ele>
        <time>2022-07-01T08:26:48Z</time>
      </trkpt>
      <trkpt lat="45.22259" lon="6.94461">
        <ele>1982</ele>
        <time>2022-07-01T08:27:01Z</time>
      </trkpt>
      <trkpt lat="45.22263" lon="6.9448">
        <ele>1979</ele>
        <time>2022-07-01T08:27:04Z</time>
      </trkpt>
      <trkpt lat="45.22273" lon="6.94496">
        <ele>1979</ele>
        <time>2022-07-01T08:27:07Z</time>
      </trkpt>
      <trkpt lat="45.22283" lon="6.94504">
        <ele>1980</ele>
        <time>2022-07-01T08:27:10Z</time>
      </trkpt>
      <trkpt lat="45.2228" lon="6.94523">
        <ele>1976</ele>
        <time>2022-07-01T08:27:13Z</time>
      </trkpt>
      <trkpt lat="45.22281" lon="6.94536">
        <ele>1975</ele>
        <time>2022-07-01T08:27:16Z</time>
      </trkpt>
      <trkpt lat="45.22285" lon="6.94546">
        <ele>1974</ele>
        <time>2022-07-01T08:27:17Z</time>
      </trkpt>
      <trkpt lat="45.22299" lon="6.94555">
        <ele>1976</ele>
        <time>2022-07-01T08:27:21Z</time>
      </trkpt>
      <trkpt lat="45.22321" lon="6.94561">
        <ele>1980</ele>
        <time>2022-07-01T08:27:26Z</time>
      </trkpt>
      <trkpt lat="45.22397" lon="6.94571">
        <ele>1979</ele>
        <time>2022-07-01T08:27:44Z</time>
      </trkpt>
      <trkpt lat="45.2241" lon="6.9458">
        <ele>1977</ele>
        <time>2022-07-01T08:27:47Z</time>
      </trkpt>
      <trkpt lat="45.22421" lon="6.94626">
        <ele>1973</ele>
        <time>2022-07-01T08:27:55Z</time>
      </trkpt>
      <trkpt lat="45.22485" lon="6.94847">
        <ele>1961</ele>
        <time>2022-07-01T08:28:35Z</time>
      </trkpt>
      <trkpt lat="45.22511" lon="6.94958">
        <ele>1962</ele>
        <time>2022-07-01T08:28:54Z</time>
      </trkpt>
      <trkpt lat="45.2253" lon="6.95115">
        <ele>1955</ele>
        <time>2022-07-01T08:29:20Z</time>
      </trkpt>
      <trkpt lat="45.22532" lon="6.95277">
        <ele>1954</ele>
        <time>2022-07-01T08:29:47Z</time>
      </trkpt>
      <trkpt lat="45.22524" lon="6.95429">
        <ele>1956</ele>
        <time>2022-07-01T08:30:12Z</time>
      </trkpt>
      <trkpt lat="45.22525" lon="6.95484">
        <ele>1957</ele>
        <time>2022-07-01T08:30:21Z</time>
      </trkpt>
      <trkpt lat="45.22521" lon="6.95523">
        <ele>1957</ele>
        <time>2022-07-01T08:30:27Z</time>
      </trkpt>
      <trkpt lat="45.22499" lon="6.96039">
        <ele>1970</ele>
        <time>2022-07-01T08:31:52Z</time>
      </trkpt>
      <trkpt lat="45.22488" lon="6.9623">
        <ele>1976</ele>
        <time>2022-07-01T08:32:24Z</time>
      </trkpt>
      <trkpt lat="45.22489" lon="6.96252">
        <ele>1977</ele>
        <time>2022-07-01T08:32:28Z</time>
      </trkpt>
      <trkpt lat="45.22486" lon="6.96275">
        <ele>1977</ele>
        <time>2022-07-01T08:32:31Z</time>
      </trkpt>
      <trkpt lat="45.22488" lon="6.96296">
        <ele>1978</ele>
        <time>2022-07-01T08:32:35Z</time>
      </trkpt>
      <trkpt lat="45.22496" lon="6.96304">
        <ele>1979</ele>
        <time>2022-07-01T08:32:37Z</time>
      </trkpt>
      <trkpt lat="45.22513" lon="6.96311">
        <ele>1981</ele>
        <time>2022-07-01T08:32:41Z</time>
      </trkpt>
      <trkpt lat="45.22532" lon="6.96315">
        <ele>1983</ele>
        <time>2022-07-01T08:32:46Z</time>
      </trkpt>
      <trkpt lat="45.2255" lon="6.9631">
        <ele>1985</ele>
        <time>2022-07-01T08:32:50Z</time>
      </trkpt>
      <trkpt lat="45.22577" lon="6.96281">
        <ele>1986</ele>
        <time>2022-07-01T08:32:58Z</time>
      </trkpt>
      <trkpt lat="45.22594" lon="6.9625">
        <ele>1986</ele>
        <time>2022-07-01T08:33:04Z</time>
      </trkpt>
      <trkpt lat="45.22595" lon="6.96233">
        <ele>1985</ele>
        <time>2022-07-01T08:33:07Z</time>
      </trkpt>
      <trkpt lat="45.22603" lon="6.96194">
        <ele>1984</ele>
        <time>2022-07-01T08:33:14Z</time>
      </trkpt>
      <trkpt lat="45.22609" lon="6.96184">
        <ele>1984</ele>
        <time>2022-07-01T08:33:16Z</time>
      </trkpt>
      <trkpt lat="45.22621" lon="6.96152">
        <ele>1983</ele>
        <time>2022-07-01T08:33:22Z</time>
      </trkpt>
      <trkpt lat="45.2269" lon="6.96083">
        <ele>1979</ele>
        <time>2022-07-01T08:33:42Z</time>
      </trkpt>
      <trkpt lat="45.22703" lon="6.96074">
        <ele>1978</ele>
        <time>2022-07-01T08:33:45Z</time>
      </trkpt>
      <trkpt lat="45.22746" lon="6.96069">
        <ele>1981</ele>
        <time>2022-07-01T08:33:55Z</time>
      </trkpt>
      <trkpt lat="45.22768" lon="6.96064">
        <ele>1983</ele>
        <time>2022-07-01T08:34:00Z</time>
      </trkpt>
      <trkpt lat="45.22782" lon="6.96056">
        <ele>1984</ele>
        <time>2022-07-01T08:34:04Z</time>
      </trkpt>
      <trkpt lat="45.22805" lon="6.96037">
        <ele>1984</ele>
        <time>2022-07-01T08:34:10Z</time>
      </trkpt>
      <trkpt lat="45.22821" lon="6.96037">
        <ele>1987</ele>
        <time>2022-07-01T08:34:14Z</time>
      </trkpt>
      <trkpt lat="45.22829" lon="6.96047">
        <ele>1990</ele>
        <time>2022-07-01T08:34:16Z</time>
      </trkpt>
      <trkpt lat="45.22822" lon="6.96104">
        <ele>1999</ele>
        <time>2022-07-01T08:34:26Z</time>
      </trkpt>
      <trkpt lat="45.22809" lon="6.96146">
        <ele>2003</ele>
        <time>2022-07-01T08:34:33Z</time>
      </trkpt>
      <trkpt lat="45.22799" lon="6.96165">
        <ele>2004</ele>
        <time>2022-07-01T08:34:37Z</time>
      </trkpt>
      <trkpt lat="45.22783" lon="6.96175">
        <ele>2003</ele>
        <time>2022-07-01T08:34:41Z</time>
      </trkpt>
      <trkpt lat="45.22775" lon="6.96177">
        <ele>2002</ele>
        <time>2022-07-01T08:34:43Z</time>
      </trkpt>
      <trkpt lat="45.22737" lon="6.96204">
        <ele>2000</ele>
        <time>2022-07-01T08:34:53Z</time>
      </trkpt>
      <trkpt lat="45.22714" lon="6.96217">
        <ele>1999</ele>
        <time>2022-07-01T08:34:59Z</time>
      </trkpt>
      <trkpt lat="45.227" lon="6.96233">
        <ele>1999</ele>
        <time>2022-07-01T08:35:03Z</time>
      </trkpt>
      <trkpt lat="45.22695" lon="6.96245">
        <ele>2000</ele>
        <time>2022-07-01T08:35:06Z</time>
      </trkpt>
      <trkpt lat="45.22679" lon="6.96268">
        <ele>2001</ele>
        <time>2022-07-01T08:35:11Z</time>
      </trkpt>
      <trkpt lat="45.22658" lon="6.96276">
        <ele>1999</ele>
        <time>2022-07-01T08:35:16Z</time>
      </trkpt>
      <trkpt lat="45.22649" lon="6.96283">
        <ele>1999</ele>
        <time>2022-07-01T08:35:18Z</time>
      </trkpt>
      <trkpt lat="45.22645" lon="6.96292">
        <ele>1999</ele>
        <time>2022-07-01T08:35:20Z</time>
      </trkpt>
      <trkpt lat="45.22641" lon="6.96354">
        <ele>2006</ele>
        <time>2022-07-01T08:35:30Z</time>
      </trkpt>
      <trkpt lat="45.22613" lon="6.9645">
        <ele>2011</ele>
        <time>2022-07-01T08:35:47Z</time>
      </trkpt>
      <trkpt lat="45.22613" lon="6.96458">
        <ele>2012</ele>
        <time>2022-07-01T08:35:49Z</time>
      </trkpt>
      <trkpt lat="45.22618" lon="6.96463">
        <ele>2014</ele>
        <time>2022-07-01T08:35:50Z</time>
      </trkpt>
      <trkpt lat="45.22625" lon="6.96458">
        <ele>2016</ele>
        <time>2022-07-01T08:35:52Z</time>
      </trkpt>
      <trkpt lat="45.22637" lon="6.96437">
        <ele>2016</ele>
        <time>2022-07-01T08:35:56Z</time>
      </trkpt>
      <trkpt lat="45.22654" lon="6.96421">
        <ele>2018</ele>
        <time>2022-07-01T08:36:01Z</time>
      </trkpt>
      <trkpt lat="45.22675" lon="6.96406">
        <ele>2021</ele>
        <time>2022-07-01T08:36:07Z</time>
      </trkpt>
      <trkpt lat="45.22701" lon="6.96393">
        <ele>2023</ele>
        <time>2022-07-01T08:36:13Z</time>
      </trkpt>
      <trkpt lat="45.22748" lon="6.96376">
        <ele>2028</ele>
        <time>2022-07-01T08:36:24Z</time>
      </trkpt>
      <trkpt lat="45.22768" lon="6.96374">
        <ele>2035</ele>
        <time>2022-07-01T08:36:29Z</time>
      </trkpt>
      <trkpt lat="45.22768" lon="6.96378">
        <ele>2036</ele>
        <time>2022-07-01T08:36:30Z</time>
      </trkpt>
      <trkpt lat="45.22753" lon="6.96393">
        <ele>2032</ele>
        <time>2022-07-01T08:36:34Z</time>
      </trkpt>
      <trkpt lat="45.22727" lon="6.96429">
        <ele>2034</ele>
        <time>2022-07-01T08:36:43Z</time>
      </trkpt>
      <trkpt lat="45.22698" lon="6.96476">
        <ele>2038</ele>
        <time>2022-07-01T08:36:53Z</time>
      </trkpt>
      <trkpt lat="45.22677" lon="6.96517">
        <ele>2040</ele>
        <time>2022-07-01T08:37:01Z</time>
      </trkpt>
      <trkpt lat="45.22666" lon="6.96547">
        <ele>2042</ele>
        <time>2022-07-01T08:37:07Z</time>
      </trkpt>
      <trkpt lat="45.22656" lon="6.96594">
        <ele>2044</ele>
        <time>2022-07-01T08:37:15Z</time>
      </trkpt>
      <trkpt lat="45.22663" lon="6.96658">
        <ele>2050</ele>
        <time>2022-07-01T08:37:25Z</time>
      </trkpt>
      <trkpt lat="45.22661" lon="6.96687">
        <ele>2056</ele>
        <time>2022-07-01T08:37:30Z</time>
      </trkpt>
      <trkpt lat="45.22652" lon="6.967">
        <ele>2057</ele>
        <time>2022-07-01T08:37:33Z</time>
      </trkpt>
      <trkpt lat="45.2263" lon="6.96723">
        <ele>2056</ele>
        <time>2022-07-01T08:37:40Z</time>
      </trkpt>
      <trkpt lat="45.22625" lon="6.96732">
        <ele>2057</ele>
        <time>2022-07-01T08:37:42Z</time>
      </trkpt>
      <trkpt lat="45.22621" lon="6.96744">
        <ele>2058</ele>
        <time>2022-07-01T08:37:44Z</time>
      </trkpt>
      <trkpt lat="45.22614" lon="6.96788">
        <ele>2068</ele>
        <time>2022-07-01T08:37:51Z</time>
      </trkpt>
      <trkpt lat="45.22609" lon="6.96803">
        <ele>2071</ele>
        <time>2022-07-01T08:37:54Z</time>
      </trkpt>
      <trkpt lat="45.22601" lon="6.96811">
        <ele>2070</ele>
        <time>2022-07-01T08:37:56Z</time>
      </trkpt>
      <trkpt lat="45.2258" lon="6.96844">
        <ele>2072</ele>
        <time>2022-07-01T08:38:03Z</time>
      </trkpt>
      <trkpt lat="45.22545" lon="6.96881">
        <ele>2076</ele>
        <time>2022-07-01T08:38:14Z</time>
      </trkpt>
      <trkpt lat="45.22532" lon="6.96903">
        <ele>2080</ele>
        <time>2022-07-01T08:38:18Z</time>
      </trkpt>
      <trkpt lat="45.22524" lon="6.96907">
        <ele>2078</ele>
        <time>2022-07-01T08:38:20Z</time>
      </trkpt>
      <trkpt lat="45.22494" lon="6.96935">
        <ele>2078</ele>
        <time>2022-07-01T08:38:29Z</time>
      </trkpt>
      <trkpt lat="45.22488" lon="6.96951">
        <ele>2081</ele>
        <time>2022-07-01T08:38:32Z</time>
      </trkpt>
      <trkpt lat="45.22492" lon="6.96955">
        <ele>2084</ele>
        <time>2022-07-01T08:38:33Z</time>
      </trkpt>
      <trkpt lat="45.22506" lon="6.96938">
        <ele>2082</ele>
        <time>2022-07-01T08:38:37Z</time>
      </trkpt>
      <trkpt lat="45.22571" lon="6.96898">
        <ele>2089</ele>
        <time>2022-07-01T08:38:54Z</time>
      </trkpt>
      <trkpt lat="45.22605" lon="6.96882">
        <ele>2095</ele>
        <time>2022-07-01T08:39:02Z</time>
      </trkpt>
      <trkpt lat="45.22664" lon="6.96861">
        <ele>2110</ele>
        <time>2022-07-01T08:39:16Z</time>
      </trkpt>
      <trkpt lat="45.2268" lon="6.96851">
        <ele>2114</ele>
        <time>2022-07-01T08:39:20Z</time>
      </trkpt>
      <trkpt lat="45.22694" lon="6.96832">
        <ele>2113</ele>
        <time>2022-07-01T08:39:25Z</time>
      </trkpt>
      <trkpt lat="45.22704" lon="6.96809">
        <ele>2109</ele>
        <time>2022-07-01T08:39:29Z</time>
      </trkpt>
      <trkpt lat="45.2271" lon="6.96801">
        <ele>2109</ele>
        <time>2022-07-01T08:39:31Z</time>
      </trkpt>
      <trkpt lat="45.22745" lon="6.96783">
        <ele>2116</ele>
        <time>2022-07-01T08:39:40Z</time>
      </trkpt>
      <trkpt lat="45.22762" lon="6.9677">
        <ele>2118</ele>
        <time>2022-07-01T08:39:44Z</time>
      </trkpt>
      <trkpt lat="45.22784" lon="6.96747">
        <ele>2119</ele>
        <time>2022-07-01T08:39:51Z</time>
      </trkpt>
      <trkpt lat="45.22803" lon="6.96738">
        <ele>2125</ele>
        <time>2022-07-01T08:39:56Z</time>
      </trkpt>
      <trkpt lat="45.22846" lon="6.96699">
        <ele>2134</ele>
        <time>2022-07-01T08:40:07Z</time>
      </trkpt>
      <trkpt lat="45.22852" lon="6.96669">
        <ele>2130</ele>
        <time>2022-07-01T08:40:13Z</time>
      </trkpt>
      <trkpt lat="45.22874" lon="6.96612">
        <ele>2131</ele>
        <time>2022-07-01T08:40:23Z</time>
      </trkpt>
      <trkpt lat="45.22884" lon="6.96596">
        <ele>2134</ele>
        <time>2022-07-01T08:40:27Z</time>
      </trkpt>
      <trkpt lat="45.22909" lon="6.96576">
        <ele>2146</ele>
        <time>2022-07-01T08:40:33Z</time>
      </trkpt>
      <trkpt lat="45.22912" lon="6.96564">
        <ele>2146</ele>
        <time>2022-07-01T08:40:36Z</time>
      </trkpt>
      <trkpt lat="45.22912" lon="6.96548">
        <ele>2144</ele>
        <time>2022-07-01T08:40:38Z</time>
      </trkpt>
      <trkpt lat="45.22922" lon="6.965">
        <ele>2143</ele>
        <time>2022-07-01T08:40:46Z</time>
      </trkpt>
      <trkpt lat="45.2293" lon="6.9648">
        <ele>2144</ele>
        <time>2022-07-01T08:40:50Z</time>
      </trkpt>
      <trkpt lat="45.22956" lon="6.96383">
        <ele>2140</ele>
        <time>2022-07-01T08:41:07Z</time>
      </trkpt>
      <trkpt lat="45.2297" lon="6.96359">
        <ele>2143</ele>
        <time>2022-07-01T08:41:12Z</time>
      </trkpt>
      <trkpt lat="45.2299" lon="6.96345">
        <ele>2151</ele>
        <time>2022-07-01T08:41:18Z</time>
      </trkpt>
      <trkpt lat="45.2301" lon="6.96338">
        <ele>2156</ele>
        <time>2022-07-01T08:41:22Z</time>
      </trkpt>
      <trkpt lat="45.23013" lon="6.96339">
        <ele>2157</ele>
        <time>2022-07-01T08:41:23Z</time>
      </trkpt>
      <trkpt lat="45.2302" lon="6.96349">
        <ele>2160</ele>
        <time>2022-07-01T08:41:25Z</time>
      </trkpt>
      <trkpt lat="45.23024" lon="6.96361">
        <ele>2163</ele>
        <time>2022-07-01T08:41:28Z</time>
      </trkpt>
      <trkpt lat="45.2304" lon="6.96377">
        <ele>2169</ele>
        <time>2022-07-01T08:41:32Z</time>
      </trkpt>
      <trkpt lat="45.2305" lon="6.96381">
        <ele>2171</ele>
        <time>2022-07-01T08:41:35Z</time>
      </trkpt>
      <trkpt lat="45.23072" lon="6.9637">
        <ele>2172</ele>
        <time>2022-07-01T08:41:40Z</time>
      </trkpt>
      <trkpt lat="45.23122" lon="6.96389">
        <ele>2184</ele>
        <time>2022-07-01T08:41:52Z</time>
      </trkpt>
      <trkpt lat="45.23139" lon="6.9639">
        <ele>2186</ele>
        <time>2022-07-01T08:41:56Z</time>
      </trkpt>
      <trkpt lat="45.2315" lon="6.9638">
        <ele>2184</ele>
        <time>2022-07-01T08:41:59Z</time>
      </trkpt>
      <trkpt lat="45.23168" lon="6.96342">
        <ele>2177</ele>
        <time>2022-07-01T08:42:07Z</time>
      </trkpt>
      <trkpt lat="45.23197" lon="6.9632">
        <ele>2181</ele>
        <time>2022-07-01T08:42:14Z</time>
      </trkpt>
      <trkpt lat="45.23204" lon="6.96307">
        <ele>2180</ele>
        <time>2022-07-01T08:42:17Z</time>
      </trkpt>
      <trkpt lat="45.23227" lon="6.96302">
        <ele>2186</ele>
        <time>2022-07-01T08:42:23Z</time>
      </trkpt>
      <trkpt lat="45.23254" lon="6.96272">
        <ele>2187</ele>
        <time>2022-07-01T08:42:31Z</time>
      </trkpt>
      <trkpt lat="45.23279" lon="6.96218">
        <ele>2180</ele>
        <time>2022-07-01T08:42:41Z</time>
      </trkpt>
      <trkpt lat="45.233" lon="6.96198">
        <ele>2181</ele>
        <time>2022-07-01T08:42:47Z</time>
      </trkpt>
      <trkpt lat="45.23321" lon="6.96182">
        <ele>2184</ele>
        <time>2022-07-01T08:42:53Z</time>
      </trkpt>
      <trkpt lat="45.23337" lon="6.96178">
        <ele>2187</ele>
        <time>2022-07-01T08:42:56Z</time>
      </trkpt>
      <trkpt lat="45.23361" lon="6.96177">
        <ele>2191</ele>
        <time>2022-07-01T08:43:02Z</time>
      </trkpt>
      <trkpt lat="45.23384" lon="6.9616">
        <ele>2190</ele>
        <time>2022-07-01T08:43:08Z</time>
      </trkpt>
      <trkpt lat="45.234" lon="6.96158">
        <ele>2192</ele>
        <time>2022-07-01T08:43:12Z</time>
      </trkpt>
      <trkpt lat="45.23413" lon="6.96136">
        <ele>2190</ele>
        <time>2022-07-01T08:43:17Z</time>
      </trkpt>
      <trkpt lat="45.23429" lon="6.96115">
        <ele>2190</ele>
        <time>2022-07-01T08:43:22Z</time>
      </trkpt>
      <trkpt lat="45.23454" lon="6.96095">
        <ele>2193</ele>
        <time>2022-07-01T08:43:28Z</time>
      </trkpt>
      <trkpt lat="45.23467" lon="6.96074">
        <ele>2193</ele>
        <time>2022-07-01T08:43:33Z</time>
      </trkpt>
      <trkpt lat="45.23486" lon="6.9605">
        <ele>2193</ele>
        <time>2022-07-01T08:43:39Z</time>
      </trkpt>
      <trkpt lat="45.23538" lon="6.96003">
        <ele>2195</ele>
        <time>2022-07-01T08:43:53Z</time>
      </trkpt>
      <trkpt lat="45.23602" lon="6.95979">
        <ele>2201</ele>
        <time>2022-07-01T08:44:09Z</time>
      </trkpt>
      <trkpt lat="45.23686" lon="6.95973">
        <ele>2211</ele>
        <time>2022-07-01T08:44:28Z</time>
      </trkpt>
      <trkpt lat="45.23715" lon="6.95947">
        <ele>2208</ele>
        <time>2022-07-01T08:44:36Z</time>
      </trkpt>
      <trkpt lat="45.23765" lon="6.95932">
        <ele>2210</ele>
        <time>2022-07-01T08:44:48Z</time>
      </trkpt>
      <trkpt lat="45.23794" lon="6.95929">
        <ele>2213</ele>
        <time>2022-07-01T08:44:55Z</time>
      </trkpt>
      <trkpt lat="45.23823" lon="6.95911">
        <ele>2212</ele>
        <time>2022-07-01T08:45:03Z</time>
      </trkpt>
      <trkpt lat="45.23868" lon="6.95899">
        <ele>2218</ele>
        <time>2022-07-01T08:45:13Z</time>
      </trkpt>
      <trkpt lat="45.23882" lon="6.95891">
        <ele>2218</ele>
        <time>2022-07-01T08:45:17Z</time>
      </trkpt>
      <trkpt lat="45.23899" lon="6.95888">
        <ele>2221</ele>
        <time>2022-07-01T08:45:21Z</time>
      </trkpt>
      <trkpt lat="45.23923" lon="6.95868">
        <ele>2220</ele>
        <time>2022-07-01T08:45:27Z</time>
      </trkpt>
      <trkpt lat="45.23947" lon="6.95863">
        <ele>2222</ele>
        <time>2022-07-01T08:45:33Z</time>
      </trkpt>
      <trkpt lat="45.23963" lon="6.95849">
        <ele>2221</ele>
        <time>2022-07-01T08:45:37Z</time>
      </trkpt>
      <trkpt lat="45.24017" lon="6.95834">
        <ele>2228</ele>
        <time>2022-07-01T08:45:50Z</time>
      </trkpt>
      <trkpt lat="45.24039" lon="6.95832">
        <ele>2234</ele>
        <time>2022-07-01T08:45:55Z</time>
      </trkpt>
      <trkpt lat="45.24054" lon="6.95824">
        <ele>2236</ele>
        <time>2022-07-01T08:45:59Z</time>
      </trkpt>
      <trkpt lat="45.24074" lon="6.95785">
        <ele>2229</ele>
        <time>2022-07-01T08:46:07Z</time>
      </trkpt>
      <trkpt lat="45.24094" lon="6.95772">
        <ele>2231</ele>
        <time>2022-07-01T08:46:12Z</time>
      </trkpt>
      <trkpt lat="45.24112" lon="6.95767">
        <ele>2237</ele>
        <time>2022-07-01T08:46:16Z</time>
      </trkpt>
      <trkpt lat="45.24134" lon="6.95767">
        <ele>2245</ele>
        <time>2022-07-01T08:46:22Z</time>
      </trkpt>
      <trkpt lat="45.24147" lon="6.95755">
        <ele>2246</ele>
        <time>2022-07-01T08:46:25Z</time>
      </trkpt>
      <trkpt lat="45.24162" lon="6.95704">
        <ele>2234</ele>
        <time>2022-07-01T08:46:34Z</time>
      </trkpt>
      <trkpt lat="45.2417" lon="6.95694">
        <ele>2233</ele>
        <time>2022-07-01T08:46:37Z</time>
      </trkpt>
      <trkpt lat="45.24185" lon="6.95686">
        <ele>2234</ele>
        <time>2022-07-01T08:46:40Z</time>
      </trkpt>
      <trkpt lat="45.24203" lon="6.9569">
        <ele>2240</ele>
        <time>2022-07-01T08:46:45Z</time>
      </trkpt>
      <trkpt lat="45.24228" lon="6.95703">
        <ele>2250</ele>
        <time>2022-07-01T08:46:51Z</time>
      </trkpt>
      <trkpt lat="45.24266" lon="6.9571">
        <ele>2261</ele>
        <time>2022-07-01T08:47:00Z</time>
      </trkpt>
      <trkpt lat="45.24286" lon="6.95718">
        <ele>2268</ele>
        <time>2022-07-01T08:47:05Z</time>
      </trkpt>
      <trkpt lat="45.24304" lon="6.95709">
        <ele>2269</ele>
        <time>2022-07-01T08:47:09Z</time>
      </trkpt>
      <trkpt lat="45.2433" lon="6.95686">
        <ele>2269</ele>
        <time>2022-07-01T08:47:16Z</time>
      </trkpt>
      <trkpt lat="45.24334" lon="6.95678">
        <ele>2267</ele>
        <time>2022-07-01T08:47:18Z</time>
      </trkpt>
      <trkpt lat="45.24346" lon="6.95682">
        <ele>2271</ele>
        <time>2022-07-01T08:47:21Z</time>
      </trkpt>
      <trkpt lat="45.24346" lon="6.95688">
        <ele>2273</ele>
        <time>2022-07-01T08:47:22Z</time>
      </trkpt>
      <trkpt lat="45.24343" lon="6.95692">
        <ele>2273</ele>
        <time>2022-07-01T08:47:23Z</time>
      </trkpt>
      <trkpt lat="45.24325" lon="6.95703">
        <ele>2272</ele>
        <time>2022-07-01T08:47:27Z</time>
      </trkpt>
      <trkpt lat="45.24318" lon="6.95714">
        <ele>2274</ele>
        <time>2022-07-01T08:47:30Z</time>
      </trkpt>
      <trkpt lat="45.24306" lon="6.9572">
        <ele>2273</ele>
        <time>2022-07-01T08:47:33Z</time>
      </trkpt>
      <trkpt lat="45.24299" lon="6.95732">
        <ele>2275</ele>
        <time>2022-07-01T08:47:35Z</time>
      </trkpt>
      <trkpt lat="45.24301" lon="6.95738">
        <ele>2277</ele>
        <time>2022-07-01T08:47:36Z</time>
      </trkpt>
      <trkpt lat="45.24306" lon="6.95741">
        <ele>2279</ele>
        <time>2022-07-01T08:47:38Z</time>
      </trkpt>
      <trkpt lat="45.24316" lon="6.95736">
        <ele>2280</ele>
        <time>2022-07-01T08:47:40Z</time>
      </trkpt>
      <trkpt lat="45.24325" lon="6.95722">
        <ele>2278</ele>
        <time>2022-07-01T08:47:43Z</time>
      </trkpt>
      <trkpt lat="45.24339" lon="6.95712">
        <ele>2277</ele>
        <time>2022-07-01T08:47:47Z</time>
      </trkpt>
      <trkpt lat="45.24349" lon="6.9571">
        <ele>2279</ele>
        <time>2022-07-01T08:47:49Z</time>
      </trkpt>
      <trkpt lat="45.24367" lon="6.9571">
        <ele>2282</ele>
        <time>2022-07-01T08:47:53Z</time>
      </trkpt>
      <trkpt lat="45.24385" lon="6.95721">
        <ele>2286</ele>
        <time>2022-07-01T08:47:58Z</time>
      </trkpt>
      <trkpt lat="45.24398" lon="6.95725">
        <ele>2289</ele>
        <time>2022-07-01T08:48:01Z</time>
      </trkpt>
      <trkpt lat="45.24403" lon="6.9571">
        <ele>2287</ele>
        <time>2022-07-01T08:48:04Z</time>
      </trkpt>
      <trkpt lat="45.24404" lon="6.95692">
        <ele>2285</ele>
        <time>2022-07-01T08:48:07Z</time>
      </trkpt>
      <trkpt lat="45.24401" lon="6.95674">
        <ele>2282</ele>
        <time>2022-07-01T08:48:10Z</time>
      </trkpt>
      <trkpt lat="45.24428" lon="6.9567">
        <ele>2286</ele>
        <time>2022-07-01T08:48:16Z</time>
      </trkpt>
      <trkpt lat="45.24447" lon="6.95659">
        <ele>2287</ele>
        <time>2022-07-01T08:48:21Z</time>
      </trkpt>
      <trkpt lat="45.24479" lon="6.95629">
        <ele>2286</ele>
        <time>2022-07-01T08:48:30Z</time>
      </trkpt>
      <trkpt lat="45.24504" lon="6.956">
        <ele>2282</ele>
        <time>2022-07-01T08:48:38Z</time>
      </trkpt>
      <trkpt lat="45.24522" lon="6.95602">
        <ele>2284</ele>
        <time>2022-07-01T08:48:42Z</time>
      </trkpt>
      <trkpt lat="45.24538" lon="6.95609">
        <ele>2287</ele>
        <time>2022-07-01T08:48:46Z</time>
      </trkpt>
      <trkpt lat="45.24565" lon="6.95612">
        <ele>2290</ele>
        <time>2022-07-01T08:48:52Z</time>
      </trkpt>
      <trkpt lat="45.24589" lon="6.95611">
        <ele>2292</ele>
        <time>2022-07-01T08:48:58Z</time>
      </trkpt>
      <trkpt lat="45.24619" lon="6.95594">
        <ele>2290</ele>
        <time>2022-07-01T08:49:05Z</time>
      </trkpt>
      <trkpt lat="45.24673" lon="6.95571">
        <ele>2289</ele>
        <time>2022-07-01T08:49:18Z</time>
      </trkpt>
      <trkpt lat="45.24707" lon="6.95553">
        <ele>2285</ele>
        <time>2022-07-01T08:49:27Z</time>
      </trkpt>
      <trkpt lat="45.24723" lon="6.95523">
        <ele>2277</ele>
        <time>2022-07-01T08:49:33Z</time>
      </trkpt>
      <trkpt lat="45.24743" lon="6.9553">
        <ele>2279</ele>
        <time>2022-07-01T08:49:38Z</time>
      </trkpt>
      <trkpt lat="45.24761" lon="6.95545">
        <ele>2283</ele>
        <time>2022-07-01T08:49:43Z</time>
      </trkpt>
      <trkpt lat="45.24787" lon="6.95559">
        <ele>2285</ele>
        <time>2022-07-01T08:49:49Z</time>
      </trkpt>
      <trkpt lat="45.24797" lon="6.95576">
        <ele>2287</ele>
        <time>2022-07-01T08:49:53Z</time>
      </trkpt>
      <trkpt lat="45.24813" lon="6.95591">
        <ele>2288</ele>
        <time>2022-07-01T08:49:57Z</time>
      </trkpt>
      <trkpt lat="45.24842" lon="6.95643">
        <ele>2294</ele>
        <time>2022-07-01T08:50:08Z</time>
      </trkpt>
      <trkpt lat="45.2488" lon="6.95682">
        <ele>2298</ele>
        <time>2022-07-01T08:50:19Z</time>
      </trkpt>
      <trkpt lat="45.24892" lon="6.9571">
        <ele>2301</ele>
        <time>2022-07-01T08:50:25Z</time>
      </trkpt>
      <trkpt lat="45.24914" lon="6.95732">
        <ele>2301</ele>
        <time>2022-07-01T08:50:31Z</time>
      </trkpt>
      <trkpt lat="45.24929" lon="6.95734">
        <ele>2302</ele>
        <time>2022-07-01T08:50:34Z</time>
      </trkpt>
      <trkpt lat="45.24936" lon="6.95709">
        <ele>2301</ele>
        <time>2022-07-01T08:50:39Z</time>
      </trkpt>
      <trkpt lat="45.24937" lon="6.95694">
        <ele>2300</ele>
        <time>2022-07-01T08:50:41Z</time>
      </trkpt>
      <trkpt lat="45.24934" lon="6.95673">
        <ele>2298</ele>
        <time>2022-07-01T08:50:45Z</time>
      </trkpt>
      <trkpt lat="45.24924" lon="6.95642">
        <ele>2294</ele>
        <time>2022-07-01T08:50:50Z</time>
      </trkpt>
      <trkpt lat="45.24917" lon="6.95609">
        <ele>2290</ele>
        <time>2022-07-01T08:50:56Z</time>
      </trkpt>
      <trkpt lat="45.24911" lon="6.95593">
        <ele>2288</ele>
        <time>2022-07-01T08:50:59Z</time>
      </trkpt>
      <trkpt lat="45.24906" lon="6.95588">
        <ele>2288</ele>
        <time>2022-07-01T08:51:00Z</time>
      </trkpt>
      <trkpt lat="45.24903" lon="6.95573">
        <ele>2287</ele>
        <time>2022-07-01T08:51:03Z</time>
      </trkpt>
      <trkpt lat="45.24887" lon="6.95553">
        <ele>2285</ele>
        <time>2022-07-01T08:51:08Z</time>
      </trkpt>
      <trkpt lat="45.24877" lon="6.9552">
        <ele>2283</ele>
        <time>2022-07-01T08:51:14Z</time>
      </trkpt>
      <trkpt lat="45.24887" lon="6.95462">
        <ele>2282</ele>
        <time>2022-07-01T08:51:24Z</time>
      </trkpt>
      <trkpt lat="45.24899" lon="6.95421">
        <ele>2282</ele>
        <time>2022-07-01T08:51:31Z</time>
      </trkpt>
      <trkpt lat="45.24915" lon="6.9538">
        <ele>2282</ele>
        <time>2022-07-01T08:51:39Z</time>
      </trkpt>
      <trkpt lat="45.24916" lon="6.95362">
        <ele>2281</ele>
        <time>2022-07-01T08:51:42Z</time>
      </trkpt>
      <trkpt lat="45.24896" lon="6.95266">
        <ele>2276</ele>
        <time>2022-07-01T08:51:58Z</time>
      </trkpt>
      <trkpt lat="45.24895" lon="6.95227">
        <ele>2274</ele>
        <time>2022-07-01T08:52:05Z</time>
      </trkpt>
      <trkpt lat="45.24892" lon="6.95209">
        <ele>2273</ele>
        <time>2022-07-01T08:52:08Z</time>
      </trkpt>
      <trkpt lat="45.24886" lon="6.95192">
        <ele>2271</ele>
        <time>2022-07-01T08:52:11Z</time>
      </trkpt>
      <trkpt lat="45.24879" lon="6.95183">
        <ele>2269</ele>
        <time>2022-07-01T08:52:13Z</time>
      </trkpt>
      <trkpt lat="45.24861" lon="6.95144">
        <ele>2264</ele>
        <time>2022-07-01T08:52:21Z</time>
      </trkpt>
      <trkpt lat="45.24844" lon="6.95118">
        <ele>2259</ele>
        <time>2022-07-01T08:52:26Z</time>
      </trkpt>
      <trkpt lat="45.2483" lon="6.95102">
        <ele>2256</ele>
        <time>2022-07-01T08:52:31Z</time>
      </trkpt>
      <trkpt lat="45.24801" lon="6.95051">
        <ele>2251</ele>
        <time>2022-07-01T08:52:41Z</time>
      </trkpt>
      <trkpt lat="45.24787" lon="6.95039">
        <ele>2248</ele>
        <time>2022-07-01T08:52:45Z</time>
      </trkpt>
      <trkpt lat="45.24768" lon="6.95015">
        <ele>2244</ele>
        <time>2022-07-01T08:52:51Z</time>
      </trkpt>
      <trkpt lat="45.24749" lon="6.94998">
        <ele>2240</ele>
        <time>2022-07-01T08:52:56Z</time>
      </trkpt>
      <trkpt lat="45.24736" lon="6.94991">
        <ele>2237</ele>
        <time>2022-07-01T08:53:00Z</time>
      </trkpt>
      <trkpt lat="45.24658" lon="6.94969">
        <ele>2218</ele>
        <time>2022-07-01T08:53:18Z</time>
      </trkpt>
      <trkpt lat="45.2463" lon="6.94954">
        <ele>2211</ele>
        <time>2022-07-01T08:53:25Z</time>
      </trkpt>
      <trkpt lat="45.24578" lon="6.949">
        <ele>2199</ele>
        <time>2022-07-01T08:53:40Z</time>
      </trkpt>
      <trkpt lat="45.24569" lon="6.94887">
        <ele>2196</ele>
        <time>2022-07-01T08:53:43Z</time>
      </trkpt>
      <trkpt lat="45.24557" lon="6.94855">
        <ele>2191</ele>
        <time>2022-07-01T08:53:49Z</time>
      </trkpt>
      <trkpt lat="45.24555" lon="6.94827">
        <ele>2190</ele>
        <time>2022-07-01T08:53:54Z</time>
      </trkpt>
      <trkpt lat="45.24566" lon="6.94762">
        <ele>2189</ele>
        <time>2022-07-01T08:54:05Z</time>
      </trkpt>
      <trkpt lat="45.24573" lon="6.94701">
        <ele>2181</ele>
        <time>2022-07-01T08:54:15Z</time>
      </trkpt>
      <trkpt lat="45.24583" lon="6.94662">
        <ele>2177</ele>
        <time>2022-07-01T08:54:22Z</time>
      </trkpt>
      <trkpt lat="45.24594" lon="6.94634">
        <ele>2178</ele>
        <time>2022-07-01T08:54:27Z</time>
      </trkpt>
      <trkpt lat="45.2461" lon="6.94557">
        <ele>2173</ele>
        <time>2022-07-01T08:54:40Z</time>
      </trkpt>
      <trkpt lat="45.24626" lon="6.94504">
        <ele>2170</ele>
        <time>2022-07-01T08:54:50Z</time>
      </trkpt>
      <trkpt lat="45.24642" lon="6.94421">
        <ele>2165</ele>
        <time>2022-07-01T08:55:04Z</time>
      </trkpt>
      <trkpt lat="45.2464" lon="6.94357">
        <ele>2160</ele>
        <time>2022-07-01T08:55:14Z</time>
      </trkpt>
      <trkpt lat="45.24635" lon="6.9435">
        <ele>2158</ele>
        <time>2022-07-01T08:55:16Z</time>
      </trkpt>
      <trkpt lat="45.2462" lon="6.94346">
        <ele>2154</ele>
        <time>2022-07-01T08:55:20Z</time>
      </trkpt>
      <trkpt lat="45.24615" lon="6.94321">
        <ele>2151</ele>
        <time>2022-07-01T08:55:24Z</time>
      </trkpt>
      <trkpt lat="45.24616" lon="6.94299">
        <ele>2151</ele>
        <time>2022-07-01T08:55:28Z</time>
      </trkpt>
      <trkpt lat="45.24625" lon="6.94281">
        <ele>2153</ele>
        <time>2022-07-01T08:55:31Z</time>
      </trkpt>
      <trkpt lat="45.2463" lon="6.94265">
        <ele>2154</ele>
        <time>2022-07-01T08:55:34Z</time>
      </trkpt>
      <trkpt lat="45.24632" lon="6.94243">
        <ele>2153</ele>
        <time>2022-07-01T08:55:38Z</time>
      </trkpt>
      <trkpt lat="45.24636" lon="6.94237">
        <ele>2154</ele>
        <time>2022-07-01T08:55:39Z</time>
      </trkpt>
      <trkpt lat="45.24648" lon="6.94198">
        <ele>2153</ele>
        <time>2022-07-01T08:55:46Z</time>
      </trkpt>
      <trkpt lat="45.24693" lon="6.94113">
        <ele>2154</ele>
        <time>2022-07-01T08:56:04Z</time>
      </trkpt>
      <trkpt lat="45.24726" lon="6.94025">
        <ele>2151</ele>
        <time>2022-07-01T08:56:20Z</time>
      </trkpt>
      <trkpt lat="45.24737" lon="6.93937">
        <ele>2140</ele>
        <time>2022-07-01T08:56:35Z</time>
      </trkpt>
      <trkpt lat="45.24771" lon="6.93886">
        <ele>2152</ele>
        <time>2022-07-01T08:56:46Z</time>
      </trkpt>
      <trkpt lat="45.24781" lon="6.93859">
        <ele>2153</ele>
        <time>2022-07-01T08:56:51Z</time>
      </trkpt>
      <trkpt lat="45.24799" lon="6.9375">
        <ele>2147</ele>
        <time>2022-07-01T08:57:10Z</time>
      </trkpt>
      <trkpt lat="45.24821" lon="6.93691">
        <ele>2152</ele>
        <time>2022-07-01T08:57:21Z</time>
      </trkpt>
      <trkpt lat="45.24826" lon="6.93656">
        <ele>2150</ele>
        <time>2022-07-01T08:57:26Z</time>
      </trkpt>
      <trkpt lat="45.24839" lon="6.93611">
        <ele>2153</ele>
        <time>2022-07-01T08:57:34Z</time>
      </trkpt>
      <trkpt lat="45.24852" lon="6.93505">
        <ele>2149</ele>
        <time>2022-07-01T08:57:52Z</time>
      </trkpt>
      <trkpt lat="45.24856" lon="6.9349">
        <ele>2148</ele>
        <time>2022-07-01T08:57:55Z</time>
      </trkpt>
      <trkpt lat="45.24856" lon="6.93456">
        <ele>2143</ele>
        <time>2022-07-01T08:58:00Z</time>
      </trkpt>
      <trkpt lat="45.24861" lon="6.93445">
        <ele>2143</ele>
        <time>2022-07-01T08:58:03Z</time>
      </trkpt>
      <trkpt lat="45.24874" lon="6.93437">
        <ele>2148</ele>
        <time>2022-07-01T08:58:06Z</time>
      </trkpt>
      <trkpt lat="45.24894" lon="6.93436">
        <ele>2157</ele>
        <time>2022-07-01T08:58:10Z</time>
      </trkpt>
      <trkpt lat="45.24909" lon="6.93431">
        <ele>2162</ele>
        <time>2022-07-01T08:58:14Z</time>
      </trkpt>
      <trkpt lat="45.2491" lon="6.93422">
        <ele>2161</ele>
        <time>2022-07-01T08:58:16Z</time>
      </trkpt>
      <trkpt lat="45.24906" lon="6.9341">
        <ele>2158</ele>
        <time>2022-07-01T08:58:18Z</time>
      </trkpt>
      <trkpt lat="45.24889" lon="6.93388">
        <ele>2150</ele>
        <time>2022-07-01T08:58:23Z</time>
      </trkpt>
      <trkpt lat="45.24882" lon="6.93372">
        <ele>2145</ele>
        <time>2022-07-01T08:58:26Z</time>
      </trkpt>
      <trkpt lat="45.24887" lon="6.93292">
        <ele>2143</ele>
        <time>2022-07-01T08:58:39Z</time>
      </trkpt>
      <trkpt lat="45.24894" lon="6.9326">
        <ele>2145</ele>
        <time>2022-07-01T08:58:45Z</time>
      </trkpt>
      <trkpt lat="45.24903" lon="6.9324">
        <ele>2148</ele>
        <time>2022-07-01T08:58:49Z</time>
      </trkpt>
      <trkpt lat="45.24912" lon="6.9321">
        <ele>2146</ele>
        <time>2022-07-01T08:58:54Z</time>
      </trkpt>
      <trkpt lat="45.24942" lon="6.93157">
        <ele>2149</ele>
        <time>2022-07-01T08:59:05Z</time>
      </trkpt>
      <trkpt lat="45.24964" lon="6.93106">
        <ele>2146</ele>
        <time>2022-07-01T08:59:15Z</time>
      </trkpt>
      <trkpt lat="45.24986" lon="6.93073">
        <ele>2148</ele>
        <time>2022-07-01T08:59:23Z</time>
      </trkpt>
      <trkpt lat="45.25001" lon="6.93059">
        <ele>2152</ele>
        <time>2022-07-01T08:59:27Z</time>
      </trkpt>
      <trkpt lat="45.25025" lon="6.9302">
        <ele>2155</ele>
        <time>2022-07-01T08:59:35Z</time>
      </trkpt>
      <trkpt lat="45.25054" lon="6.92959">
        <ele>2159</ele>
        <time>2022-07-01T08:59:48Z</time>
      </trkpt>
      <trkpt lat="45.25062" lon="6.92937">
        <ele>2159</ele>
        <time>2022-07-01T08:59:52Z</time>
      </trkpt>
      <trkpt lat="45.25065" lon="6.92914">
        <ele>2157</ele>
        <time>2022-07-01T08:59:55Z</time>
      </trkpt>
      <trkpt lat="45.25065" lon="6.92888">
        <ele>2157</ele>
        <time>2022-07-01T09:00:00Z</time>
      </trkpt>
      <trkpt lat="45.25051" lon="6.92818">
        <ele>2149</ele>
        <time>2022-07-01T09:00:12Z</time>
      </trkpt>
      <trkpt lat="45.25043" lon="6.92739">
        <ele>2143</ele>
        <time>2022-07-01T09:00:25Z</time>
      </trkpt>
      <trkpt lat="45.25047" lon="6.92709">
        <ele>2141</ele>
        <time>2022-07-01T09:00:30Z</time>
      </trkpt>
      <trkpt lat="45.25056" lon="6.9269">
        <ele>2145</ele>
        <time>2022-07-01T09:00:34Z</time>
      </trkpt>
      <trkpt lat="45.25059" lon="6.92671">
        <ele>2144</ele>
        <time>2022-07-01T09:00:37Z</time>
      </trkpt>
      <trkpt lat="45.25072" lon="6.92629">
        <ele>2142</ele>
        <time>2022-07-01T09:00:44Z</time>
      </trkpt>
      <trkpt lat="45.25109" lon="6.92561">
        <ele>2143</ele>
        <time>2022-07-01T09:00:58Z</time>
      </trkpt>
      <trkpt lat="45.25143" lon="6.92518">
        <ele>2145</ele>
        <time>2022-07-01T09:01:09Z</time>
      </trkpt>
      <trkpt lat="45.25179" lon="6.92486">
        <ele>2149</ele>
        <time>2022-07-01T09:01:19Z</time>
      </trkpt>
      <trkpt lat="45.25192" lon="6.92464">
        <ele>2147</ele>
        <time>2022-07-01T09:01:24Z</time>
      </trkpt>
      <trkpt lat="45.2521" lon="6.92446">
        <ele>2148</ele>
        <time>2022-07-01T09:01:29Z</time>
      </trkpt>
      <trkpt lat="45.25232" lon="6.92435">
        <ele>2152</ele>
        <time>2022-07-01T09:01:34Z</time>
      </trkpt>
      <trkpt lat="45.25247" lon="6.92424">
        <ele>2154</ele>
        <time>2022-07-01T09:01:38Z</time>
      </trkpt>
      <trkpt lat="45.25278" lon="6.92372">
        <ele>2156</ele>
        <time>2022-07-01T09:01:49Z</time>
      </trkpt>
      <trkpt lat="45.25314" lon="6.92247">
        <ele>2148</ele>
        <time>2022-07-01T09:02:12Z</time>
      </trkpt>
      <trkpt lat="45.25329" lon="6.92218">
        <ele>2152</ele>
        <time>2022-07-01T09:02:18Z</time>
      </trkpt>
      <trkpt lat="45.25342" lon="6.92181">
        <ele>2154</ele>
        <time>2022-07-01T09:02:24Z</time>
      </trkpt>
      <trkpt lat="45.25351" lon="6.92136">
        <ele>2155</ele>
        <time>2022-07-01T09:02:32Z</time>
      </trkpt>
      <trkpt lat="45.25357" lon="6.92093">
        <ele>2153</ele>
        <time>2022-07-01T09:02:39Z</time>
      </trkpt>
      <trkpt lat="45.25364" lon="6.92008">
        <ele>2150</ele>
        <time>2022-07-01T09:02:53Z</time>
      </trkpt>
      <trkpt lat="45.25378" lon="6.91959">
        <ele>2152</ele>
        <time>2022-07-01T09:03:02Z</time>
      </trkpt>
      <trkpt lat="45.25386" lon="6.91921">
        <ele>2152</ele>
        <time>2022-07-01T09:03:09Z</time>
      </trkpt>
      <trkpt lat="45.25387" lon="6.91877">
        <ele>2148</ele>
        <time>2022-07-01T09:03:16Z</time>
      </trkpt>
      <trkpt lat="45.25394" lon="6.91825">
        <ele>2147</ele>
        <time>2022-07-01T09:03:24Z</time>
      </trkpt>
      <trkpt lat="45.25395" lon="6.91771">
        <ele>2143</ele>
        <time>2022-07-01T09:03:33Z</time>
      </trkpt>
      <trkpt lat="45.25409" lon="6.91711">
        <ele>2144</ele>
        <time>2022-07-01T09:03:44Z</time>
      </trkpt>
      <trkpt lat="45.25425" lon="6.91684">
        <ele>2148</ele>
        <time>2022-07-01T09:03:50Z</time>
      </trkpt>
      <trkpt lat="45.2544" lon="6.9167">
        <ele>2153</ele>
        <time>2022-07-01T09:03:54Z</time>
      </trkpt>
      <trkpt lat="45.25446" lon="6.9166">
        <ele>2154</ele>
        <time>2022-07-01T09:03:56Z</time>
      </trkpt>
      <trkpt lat="45.25458" lon="6.91623">
        <ele>2153</ele>
        <time>2022-07-01T09:04:03Z</time>
      </trkpt>
      <trkpt lat="45.2547" lon="6.91607">
        <ele>2156</ele>
        <time>2022-07-01T09:04:06Z</time>
      </trkpt>
      <trkpt lat="45.25472" lon="6.91596">
        <ele>2155</ele>
        <time>2022-07-01T09:04:08Z</time>
      </trkpt>
      <trkpt lat="45.25482" lon="6.91585">
        <ele>2157</ele>
        <time>2022-07-01T09:04:11Z</time>
      </trkpt>
      <trkpt lat="45.25492" lon="6.91562">
        <ele>2158</ele>
        <time>2022-07-01T09:04:16Z</time>
      </trkpt>
      <trkpt lat="45.25505" lon="6.91519">
        <ele>2158</ele>
        <time>2022-07-01T09:04:23Z</time>
      </trkpt>
      <trkpt lat="45.25526" lon="6.91495">
        <ele>2164</ele>
        <time>2022-07-01T09:04:30Z</time>
      </trkpt>
      <trkpt lat="45.25539" lon="6.91484">
        <ele>2167</ele>
        <time>2022-07-01T09:04:33Z</time>
      </trkpt>
      <trkpt lat="45.25545" lon="6.91483">
        <ele>2169</ele>
        <time>2022-07-01T09:04:35Z</time>
      </trkpt>
      <trkpt lat="45.25537" lon="6.91559">
        <ele>2179</ele>
        <time>2022-07-01T09:04:47Z</time>
      </trkpt>
      <trkpt lat="45.25577" lon="6.91515">
        <ele>2190</ele>
        <time>2022-07-01T09:04:59Z</time>
      </trkpt>
      <trkpt lat="45.25621" lon="6.91482">
        <ele>2200</ele>
        <time>2022-07-01T09:05:11Z</time>
      </trkpt>
      <trkpt lat="45.25638" lon="6.91462">
        <ele>2202</ele>
        <time>2022-07-01T09:05:16Z</time>
      </trkpt>
      <trkpt lat="45.25647" lon="6.91437">
        <ele>2199</ele>
        <time>2022-07-01T09:05:20Z</time>
      </trkpt>
      <trkpt lat="45.25647" lon="6.91413">
        <ele>2194</ele>
        <time>2022-07-01T09:05:24Z</time>
      </trkpt>
      <trkpt lat="45.25656" lon="6.9139">
        <ele>2193</ele>
        <time>2022-07-01T09:05:29Z</time>
      </trkpt>
      <trkpt lat="45.25657" lon="6.91354">
        <ele>2188</ele>
        <time>2022-07-01T09:05:35Z</time>
      </trkpt>
      <trkpt lat="45.25665" lon="6.91309">
        <ele>2183</ele>
        <time>2022-07-01T09:05:42Z</time>
      </trkpt>
      <trkpt lat="45.25674" lon="6.91281">
        <ele>2182</ele>
        <time>2022-07-01T09:05:47Z</time>
      </trkpt>
      <trkpt lat="45.25676" lon="6.91254">
        <ele>2178</ele>
        <time>2022-07-01T09:05:52Z</time>
      </trkpt>
      <trkpt lat="45.25688" lon="6.91222">
        <ele>2177</ele>
        <time>2022-07-01T09:05:58Z</time>
      </trkpt>
      <trkpt lat="45.25695" lon="6.91188">
        <ele>2175</ele>
        <time>2022-07-01T09:06:04Z</time>
      </trkpt>
      <trkpt lat="45.25723" lon="6.91128">
        <ele>2169</ele>
        <time>2022-07-01T09:06:15Z</time>
      </trkpt>
      <trkpt lat="45.25724" lon="6.91117">
        <ele>2167</ele>
        <time>2022-07-01T09:06:17Z</time>
      </trkpt>
      <trkpt lat="45.25722" lon="6.91107">
        <ele>2165</ele>
        <time>2022-07-01T09:06:19Z</time>
      </trkpt>
      <trkpt lat="45.25728" lon="6.91079">
        <ele>2160</ele>
        <time>2022-07-01T09:06:24Z</time>
      </trkpt>
      <trkpt lat="45.25721" lon="6.91063">
        <ele>2157</ele>
        <time>2022-07-01T09:06:27Z</time>
      </trkpt>
      <trkpt lat="45.25729" lon="6.9105">
        <ele>2155</ele>
        <time>2022-07-01T09:06:30Z</time>
      </trkpt>
      <trkpt lat="45.2574" lon="6.9104">
        <ele>2153</ele>
        <time>2022-07-01T09:06:33Z</time>
      </trkpt>
      <trkpt lat="45.25758" lon="6.91041">
        <ele>2155</ele>
        <time>2022-07-01T09:06:37Z</time>
      </trkpt>
      <trkpt lat="45.25771" lon="6.91046">
        <ele>2158</ele>
        <time>2022-07-01T09:06:40Z</time>
      </trkpt>
      <trkpt lat="45.25772" lon="6.9104">
        <ele>2157</ele>
        <time>2022-07-01T09:06:41Z</time>
      </trkpt>
      <trkpt lat="45.25767" lon="6.91026">
        <ele>2153</ele>
        <time>2022-07-01T09:06:44Z</time>
      </trkpt>
      <trkpt lat="45.25761" lon="6.91026">
        <ele>2152</ele>
        <time>2022-07-01T09:06:45Z</time>
      </trkpt>
      <trkpt lat="45.25747" lon="6.91013">
        <ele>2148</ele>
        <time>2022-07-01T09:06:49Z</time>
      </trkpt>
      <trkpt lat="45.25724" lon="6.91002">
        <ele>2145</ele>
        <time>2022-07-01T09:06:55Z</time>
      </trkpt>
      <trkpt lat="45.25702" lon="6.9098">
        <ele>2140</ele>
        <time>2022-07-01T09:07:01Z</time>
      </trkpt>
      <trkpt lat="45.2569" lon="6.90973">
        <ele>2138</ele>
        <time>2022-07-01T09:07:04Z</time>
      </trkpt>
      <trkpt lat="45.25681" lon="6.90971">
        <ele>2138</ele>
        <time>2022-07-01T09:07:06Z</time>
      </trkpt>
      <trkpt lat="45.25677" lon="6.90965">
        <ele>2136</ele>
        <time>2022-07-01T09:07:08Z</time>
      </trkpt>
      <trkpt lat="45.25681" lon="6.90959">
        <ele>2135</ele>
        <time>2022-07-01T09:07:09Z</time>
      </trkpt>
      <trkpt lat="45.25724" lon="6.90954">
        <ele>2134</ele>
        <time>2022-07-01T09:07:19Z</time>
      </trkpt>
      <trkpt lat="45.25747" lon="6.90947">
        <ele>2133</ele>
        <time>2022-07-01T09:07:24Z</time>
      </trkpt>
      <trkpt lat="45.25774" lon="6.90935">
        <ele>2134</ele>
        <time>2022-07-01T09:07:31Z</time>
      </trkpt>
      <trkpt lat="45.25789" lon="6.90924">
        <ele>2135</ele>
        <time>2022-07-01T09:07:35Z</time>
      </trkpt>
      <trkpt lat="45.25795" lon="6.90907">
        <ele>2132</ele>
        <time>2022-07-01T09:07:38Z</time>
      </trkpt>
      <trkpt lat="45.258" lon="6.9088">
        <ele>2129</ele>
        <time>2022-07-01T09:07:43Z</time>
      </trkpt>
      <trkpt lat="45.25818" lon="6.90823">
        <ele>2122</ele>
        <time>2022-07-01T09:07:53Z</time>
      </trkpt>
      <trkpt lat="45.25849" lon="6.90737">
        <ele>2113</ele>
        <time>2022-07-01T09:08:09Z</time>
      </trkpt>
      <trkpt lat="45.25869" lon="6.90719">
        <ele>2114</ele>
        <time>2022-07-01T09:08:14Z</time>
      </trkpt>
      <trkpt lat="45.25887" lon="6.90698">
        <ele>2113</ele>
        <time>2022-07-01T09:08:20Z</time>
      </trkpt>
      <trkpt lat="45.25904" lon="6.90653">
        <ele>2108</ele>
        <time>2022-07-01T09:08:28Z</time>
      </trkpt>
      <trkpt lat="45.25924" lon="6.90623">
        <ele>2107</ele>
        <time>2022-07-01T09:08:35Z</time>
      </trkpt>
      <trkpt lat="45.25938" lon="6.90581">
        <ele>2103</ele>
        <time>2022-07-01T09:08:43Z</time>
      </trkpt>
      <trkpt lat="45.25957" lon="6.90545">
        <ele>2102</ele>
        <time>2022-07-01T09:08:50Z</time>
      </trkpt>
      <trkpt lat="45.2597" lon="6.90504">
        <ele>2100</ele>
        <time>2022-07-01T09:08:57Z</time>
      </trkpt>
      <trkpt lat="45.26015" lon="6.90405">
        <ele>2099</ele>
        <time>2022-07-01T09:09:17Z</time>
      </trkpt>
      <trkpt lat="45.26004" lon="6.9038">
        <ele>2097</ele>
        <time>2022-07-01T09:09:22Z</time>
      </trkpt>
      <trkpt lat="45.26004" lon="6.90347">
        <ele>2095</ele>
        <time>2022-07-01T09:09:27Z</time>
      </trkpt>
      <trkpt lat="45.26057" lon="6.90236">
        <ele>2091</ele>
        <time>2022-07-01T09:09:49Z</time>
      </trkpt>
      <trkpt lat="45.26079" lon="6.90212">
        <ele>2090</ele>
        <time>2022-07-01T09:09:56Z</time>
      </trkpt>
      <trkpt lat="45.2609" lon="6.90195">
        <ele>2089</ele>
        <time>2022-07-01T09:09:59Z</time>
      </trkpt>
      <trkpt lat="45.26096" lon="6.90144">
        <ele>2087</ele>
        <time>2022-07-01T09:10:08Z</time>
      </trkpt>
      <trkpt lat="45.261" lon="6.90129">
        <ele>2086</ele>
        <time>2022-07-01T09:10:11Z</time>
      </trkpt>
      <trkpt lat="45.2611" lon="6.9011">
        <ele>2083</ele>
        <time>2022-07-01T09:10:14Z</time>
      </trkpt>
      <trkpt lat="45.26113" lon="6.90088">
        <ele>2081</ele>
        <time>2022-07-01T09:10:18Z</time>
      </trkpt>
      <trkpt lat="45.26109" lon="6.90074">
        <ele>2081</ele>
        <time>2022-07-01T09:10:21Z</time>
      </trkpt>
      <trkpt lat="45.26099" lon="6.90059">
        <ele>2082</ele>
        <time>2022-07-01T09:10:24Z</time>
      </trkpt>
      <trkpt lat="45.26091" lon="6.90041">
        <ele>2082</ele>
        <time>2022-07-01T09:10:27Z</time>
      </trkpt>
      <trkpt lat="45.26046" lon="6.90027">
        <ele>2085</ele>
        <time>2022-07-01T09:10:38Z</time>
      </trkpt>
      <trkpt lat="45.26026" lon="6.90032">
        <ele>2087</ele>
        <time>2022-07-01T09:10:43Z</time>
      </trkpt>
    </trkseg>
  </trk>
</gpx>